Time,TemperatureF,DewpointF,PressureIn,WindDirection,WindDirectionDegrees,WindSpeedMPH,WindSpeedGustMPH,Humidity,HourlyPrecipIn,Conditions,Clouds,dailyrainin,SoftwareType,DateUTC
2013-08-07 00:01:00,66.4,63.7,29.80,SSE,165,0.0,0.0,91,0.00,,---,0.06,VWS V14.00,2013-08-07 04:01:00,
2013-08-07 00:06:00,66.0,63.3,29.80,SSE,165,0.0,0.0,91,0.00,,---,0.00,VWS V14.00,2013-08-07 04:06:00,
2013-08-07 00:11:00,65.8,63.4,29.80,SSE,165,0.0,0.0,92,0.00,,---,0.00,VWS V14.00,2013-08-07 04:11:00,
2013-08-07 00:16:00,65.6,63.2,29.80,SSE,165,0.0,0.0,92,0.00,,---,0.00,VWS V14.00,2013-08-07 04:16:00,
2013-08-07 00:21:00,65.5,63.1,29.80,SSE,165,0.0,0.0,92,0.00,,---,0.00,VWS V14.00,2013-08-07 04:21:00,
2013-08-07 00:22:00,65.5,63.1,29.80,SSE,165,0.0,0.0,92,0.00,,---,0.00,VWS V14.00,2013-08-07 04:22:00,
2013-08-07 00:26:00,65.3,63.2,29.80,SSE,165,0.0,0.0,93,0.00,,---,0.00,VWS V14.00,2013-08-07 04:26:00,
2013-08-07 00:27:00,65.5,63.4,29.80,SSE,165,0.0,0.0,93,0.00,,---,0.00,VWS V14.00,2013-08-07 04:27:00,
2013-08-07 00:31:00,65.3,63.2,29.80,SSE,165,0.0,0.0,93,0.00,,---,0.00,VWS V14.00,2013-08-07 04:31:00,
2013-08-07 00:32:00,65.5,63.4,29.80,SSE,165,0.0,0.0,93,0.00,,---,0.00,VWS V14.00,2013-08-07 04:32:00,
2013-08-07 00:36:00,65.3,63.2,29.80,SSE,165,0.0,0.0,93,0.00,,---,0.00,VWS V14.00,2013-08-07 04:36:00,
2013-08-07 00:37:00,65.3,63.2,29.80,SSE,165,0.0,0.0,93,0.00,,---,0.00,VWS V14.00,2013-08-07 04:37:00,
2013-08-07 00:38:00,65.2,63.1,29.80,SSE,165,0.0,0.0,93,0.00,,---,0.00,VWS V14.00,2013-08-07 04:38:00,
2013-08-07 00:42:00,65.2,63.1,29.80,SSE,165,0.0,0.0,93,0.00,,---,0.00,VWS V14.00,2013-08-07 04:42:00,
2013-08-07 00:43:00,65.2,63.1,29.80,SSE,165,0.0,0.0,93,0.00,,---,0.00,VWS V14.00,2013-08-07 04:43:00,
2013-08-07 00:47:00,65.2,63.4,29.80,SSE,165,0.0,0.0,94,0.00,,---,0.00,VWS V14.00,2013-08-07 04:47:00,
2013-08-07 00:48:00,65.2,63.1,29.80,SSE,165,0.0,0.0,93,0.00,,---,0.00,VWS V14.00,2013-08-07 04:48:00,
2013-08-07 00:52:00,65.0,63.2,29.80,SSE,165,0.0,0.0,94,0.00,,---,0.00,VWS V14.00,2013-08-07 04:52:00,
2013-08-07 00:53:00,65.0,63.2,29.80,SSE,165,0.0,0.0,94,0.00,,---,0.00,VWS V14.00,2013-08-07 04:53:00,
2013-08-07 00:57:00,65.0,63.2,29.80,SSE,165,0.0,0.0,94,0.00,,---,0.00,VWS V14.00,2013-08-07 04:57:00,
2013-08-07 00:58:00,65.0,63.2,29.80,SSE,165,0.0,0.0,94,0.00,,---,0.00,VWS V14.00,2013-08-07 04:58:00,
2013-08-07 01:02:00,65.0,63.2,29.80,SSE,165,0.0,0.0,94,0.00,,---,0.00,VWS V14.00,2013-08-07 05:02:00,
2013-08-07 01:03:00,65.0,63.2,29.80,SSE,165,0.0,0.0,94,0.00,,---,0.00,VWS V14.00,2013-08-07 05:03:00,
2013-08-07 01:07:00,65.0,63.2,29.80,SSE,165,0.0,0.0,94,0.00,,---,0.00,VWS V14.00,2013-08-07 05:07:00,
2013-08-07 01:08:00,65.0,63.2,29.80,SSE,165,0.0,0.0,94,0.00,,---,0.00,VWS V14.00,2013-08-07 05:08:00,
2013-08-07 01:12:00,65.0,63.2,29.80,SSE,165,0.0,0.0,94,0.00,,---,0.00,VWS V14.00,2013-08-07 05:12:00,
2013-08-07 01:13:00,65.0,63.2,29.80,SSE,165,0.0,0.0,94,0.00,,---,0.00,VWS V14.00,2013-08-07 05:13:00,
2013-08-07 01:17:00,65.2,63.4,29.80,SSE,165,0.0,0.0,94,0.00,,---,0.00,VWS V14.00,2013-08-07 05:17:00,
2013-08-07 01:18:00,65.2,63.4,29.80,SSE,165,0.0,0.0,94,0.00,,---,0.00,VWS V14.00,2013-08-07 05:18:00,
2013-08-07 01:22:00,65.0,63.2,29.80,SSE,165,0.0,0.0,94,0.00,,---,0.00,VWS V14.00,2013-08-07 05:22:00,
2013-08-07 01:23:00,65.0,63.2,29.80,SSE,165,0.0,0.0,94,0.00,,---,0.00,VWS V14.00,2013-08-07 05:23:00,
2013-08-07 01:28:00,64.7,62.9,29.80,SSE,165,0.0,0.0,94,0.00,,---,0.00,VWS V14.00,2013-08-07 05:28:00,
2013-08-07 01:29:00,64.7,62.9,29.80,SSE,165,0.0,0.0,94,0.00,,---,0.00,VWS V14.00,2013-08-07 05:29:00,
2013-08-07 01:33:00,64.7,63.2,29.80,SSE,165,0.0,0.0,95,0.00,,---,0.00,VWS V14.00,2013-08-07 05:33:00,
2013-08-07 01:34:00,64.7,63.2,29.80,SSE,165,0.0,0.0,95,0.00,,---,0.00,VWS V14.00,2013-08-07 05:34:00,
2013-08-07 01:38:00,64.7,63.2,29.80,SSE,165,0.0,0.0,95,0.00,,---,0.00,VWS V14.00,2013-08-07 05:38:00,
2013-08-07 01:39:00,64.7,63.2,29.80,SSE,165,0.0,0.0,95,0.00,,---,0.00,VWS V14.00,2013-08-07 05:39:00,
2013-08-07 01:43:00,64.7,63.2,29.80,SSE,165,0.0,0.0,95,0.00,,---,0.00,VWS V14.00,2013-08-07 05:43:00,
2013-08-07 01:44:00,64.7,63.2,29.80,SSE,165,0.0,0.0,95,0.00,,---,0.00,VWS V14.00,2013-08-07 05:44:00,
2013-08-07 01:48:00,64.7,63.2,29.79,SSE,165,0.0,0.0,95,0.00,,---,0.00,VWS V14.00,2013-08-07 05:48:00,
2013-08-07 01:49:00,64.7,63.2,29.79,SSE,165,0.0,0.0,95,0.00,,---,0.00,VWS V14.00,2013-08-07 05:49:00,
2013-08-07 01:53:00,64.7,63.2,29.79,SSE,165,0.0,0.0,95,0.00,,---,0.00,VWS V14.00,2013-08-07 05:53:00,
2013-08-07 01:54:00,64.7,63.2,29.79,SSE,165,0.0,0.0,95,0.00,,---,0.00,VWS V14.00,2013-08-07 05:54:00,
2013-08-07 01:58:00,64.7,63.2,29.79,SSE,165,0.0,0.0,95,0.00,,---,0.00,VWS V14.00,2013-08-07 05:58:00,
2013-08-07 01:59:00,64.7,63.2,29.79,SSE,165,0.0,0.0,95,0.00,,---,0.00,VWS V14.00,2013-08-07 05:59:00,
2013-08-07 02:00:00,64.7,63.2,29.79,SSE,165,0.0,0.0,95,0.00,,---,0.00,VWS V14.00,2013-08-07 06:00:00,
2013-08-07 02:04:00,64.7,63.2,29.78,SSE,165,0.0,0.0,95,0.00,,---,0.00,VWS V14.00,2013-08-07 06:04:00,
2013-08-07 02:05:00,64.7,63.2,29.78,SSE,165,0.0,0.0,95,0.00,,---,0.00,VWS V14.00,2013-08-07 06:05:00,
2013-08-07 02:09:00,64.5,63.0,29.78,SSE,165,0.0,0.0,95,0.00,,---,0.00,VWS V14.00,2013-08-07 06:09:00,
2013-08-07 02:10:00,64.5,63.0,29.78,SSE,165,0.0,0.0,95,0.00,,---,0.00,VWS V14.00,2013-08-07 06:10:00,
2013-08-07 02:14:00,64.5,63.0,29.78,SSE,165,0.0,0.0,95,0.00,,---,0.00,VWS V14.00,2013-08-07 06:14:00,
2013-08-07 02:15:00,64.5,63.0,29.78,SSE,165,0.0,0.0,95,0.00,,---,0.00,VWS V14.00,2013-08-07 06:15:00,
2013-08-07 02:19:00,64.5,63.0,29.78,SSE,165,0.0,0.0,95,0.00,,---,0.00,VWS V14.00,2013-08-07 06:19:00,
2013-08-07 02:20:00,64.5,63.0,29.78,SSE,165,0.0,0.0,95,0.00,,---,0.00,VWS V14.00,2013-08-07 06:20:00,
2013-08-07 02:24:00,64.5,63.0,29.78,SSE,165,0.0,0.0,95,0.00,,---,0.00,VWS V14.00,2013-08-07 06:24:00,
2013-08-07 02:25:00,64.5,63.0,29.78,SSE,165,0.0,0.0,95,0.00,,---,0.00,VWS V14.00,2013-08-07 06:25:00,
2013-08-07 02:29:00,64.3,62.8,29.78,SSE,165,0.0,0.0,95,0.00,,---,0.00,VWS V14.00,2013-08-07 06:29:00,
2013-08-07 02:31:00,64.3,62.8,29.78,SSE,165,0.0,0.0,95,0.00,,---,0.00,VWS V14.00,2013-08-07 06:31:00,
2013-08-07 02:34:00,64.3,62.8,29.78,SSE,165,0.0,0.0,95,0.00,,---,0.00,VWS V14.00,2013-08-07 06:34:00,
2013-08-07 02:36:00,64.3,62.8,29.78,SSE,165,0.0,0.0,95,0.00,,---,0.00,VWS V14.00,2013-08-07 06:36:00,
2013-08-07 02:39:00,64.3,62.8,29.78,SSE,165,0.0,0.0,95,0.00,,---,0.00,VWS V14.00,2013-08-07 06:39:00,
2013-08-07 02:41:00,64.3,62.8,29.78,SSE,165,0.0,0.0,95,0.00,,---,0.00,VWS V14.00,2013-08-07 06:41:00,
2013-08-07 02:44:00,64.3,62.8,29.78,SSE,165,0.0,0.0,95,0.00,,---,0.00,VWS V14.00,2013-08-07 06:44:00,
2013-08-07 02:46:00,64.3,62.8,29.78,SSE,165,0.0,0.0,95,0.00,,---,0.00,VWS V14.00,2013-08-07 06:46:00,
2013-08-07 02:49:00,64.3,62.8,29.78,SSE,165,0.0,0.0,95,0.00,,---,0.00,VWS V14.00,2013-08-07 06:49:00,
2013-08-07 02:50:00,64.3,62.8,29.78,SSE,165,0.0,0.0,95,0.00,,---,0.00,VWS V14.00,2013-08-07 06:50:00,
2013-08-07 02:51:00,64.3,62.8,29.78,SSE,165,0.0,0.0,95,0.00,,---,0.00,VWS V14.00,2013-08-07 06:51:00,
2013-08-07 02:55:00,64.3,62.8,29.78,SSE,165,0.0,0.0,95,0.00,,---,0.00,VWS V14.00,2013-08-07 06:55:00,
2013-08-07 02:56:00,64.3,62.8,29.78,SSE,165,0.0,0.0,95,0.00,,---,0.00,VWS V14.00,2013-08-07 06:56:00,
2013-08-07 02:57:00,64.3,62.8,29.78,SSE,165,0.0,0.0,95,0.00,,---,0.00,VWS V14.00,2013-08-07 06:57:00,
2013-08-07 03:00:00,64.3,62.8,29.78,SSE,165,0.0,0.0,95,0.00,,---,0.00,VWS V14.00,2013-08-07 07:00:00,
2013-08-07 03:02:00,64.3,62.8,29.78,SSE,165,0.0,0.0,95,0.00,,---,0.00,VWS V14.00,2013-08-07 07:02:00,
2013-08-07 03:05:00,64.3,62.8,29.78,SSE,165,0.0,0.0,95,0.00,,---,0.00,VWS V14.00,2013-08-07 07:05:00,
2013-08-07 03:07:00,64.3,62.8,29.78,SSE,165,0.0,0.0,95,0.00,,---,0.00,VWS V14.00,2013-08-07 07:07:00,
2013-08-07 03:08:00,64.3,62.8,29.78,SSE,165,0.0,0.0,95,0.00,,---,0.00,VWS V14.00,2013-08-07 07:08:00,
2013-08-07 03:10:00,64.3,62.8,29.78,SSE,165,0.0,0.0,95,0.00,,---,0.00,VWS V14.00,2013-08-07 07:10:00,
2013-08-07 03:12:00,64.3,62.8,29.78,SSE,165,0.0,0.0,95,0.00,,---,0.00,VWS V14.00,2013-08-07 07:12:00,
2013-08-07 03:13:00,64.3,62.8,29.78,SSE,165,0.0,0.0,95,0.00,,---,0.00,VWS V14.00,2013-08-07 07:13:00,
2013-08-07 03:15:00,64.2,62.7,29.78,SSE,165,0.0,0.0,95,0.00,,---,0.00,VWS V14.00,2013-08-07 07:15:00,
2013-08-07 03:16:00,64.2,62.7,29.78,SSE,165,0.0,0.0,95,0.00,,---,0.00,VWS V14.00,2013-08-07 07:16:00,
2013-08-07 03:17:00,64.2,62.7,29.78,SSE,165,0.0,0.0,95,0.00,,---,0.00,VWS V14.00,2013-08-07 07:17:00,
2013-08-07 03:18:00,64.2,62.7,29.78,SSE,165,0.0,0.0,95,0.00,,---,0.00,VWS V14.00,2013-08-07 07:18:00,
2013-08-07 03:20:00,64.2,62.7,29.78,SSE,165,0.0,0.0,95,0.00,,---,0.00,VWS V14.00,2013-08-07 07:20:00,
2013-08-07 03:21:00,64.2,62.7,29.78,SSE,165,0.0,0.0,95,0.00,,---,0.00,VWS V14.00,2013-08-07 07:21:00,
2013-08-07 03:22:00,64.2,62.7,29.78,SSE,165,0.0,0.0,95,0.00,,---,0.00,VWS V14.00,2013-08-07 07:22:00,
2013-08-07 03:23:00,64.2,62.7,29.78,SSE,165,0.0,0.0,95,0.00,,---,0.00,VWS V14.00,2013-08-07 07:23:00,
2013-08-07 03:25:00,64.2,62.7,29.78,SSE,165,0.0,0.0,95,0.00,,---,0.00,VWS V14.00,2013-08-07 07:25:00,
2013-08-07 03:26:00,64.2,62.7,29.78,SSE,165,0.0,0.0,95,0.00,,---,0.00,VWS V14.00,2013-08-07 07:26:00,
2013-08-07 03:27:00,64.0,62.5,29.78,SSE,165,0.0,0.0,95,0.00,,---,0.00,VWS V14.00,2013-08-07 07:27:00,
2013-08-07 03:28:00,64.0,62.5,29.78,SSE,160,0.0,0.0,95,0.00,,---,0.00,VWS V14.00,2013-08-07 07:28:00,
2013-08-07 03:30:00,64.0,62.5,29.78,SSE,165,0.0,0.0,95,0.00,,---,0.00,VWS V14.00,2013-08-07 07:30:00,
2013-08-07 03:31:00,64.0,62.5,29.78,SSE,165,0.0,0.0,95,0.00,,---,0.00,VWS V14.00,2013-08-07 07:31:00,
2013-08-07 03:33:00,64.0,62.5,29.78,SSE,165,0.0,0.0,95,0.00,,---,0.00,VWS V14.00,2013-08-07 07:33:00,
2013-08-07 03:34:00,64.0,62.5,29.78,SSE,165,0.0,0.0,95,0.00,,---,0.00,VWS V14.00,2013-08-07 07:34:00,
2013-08-07 03:35:00,64.0,62.5,29.78,SSE,165,0.0,0.0,95,0.00,,---,0.00,VWS V14.00,2013-08-07 07:35:00,
2013-08-07 03:36:00,64.0,62.5,29.78,SSE,165,0.0,0.0,95,0.00,,---,0.00,VWS V14.00,2013-08-07 07:36:00,
2013-08-07 03:38:00,63.9,62.4,29.78,SSE,165,0.0,0.0,95,0.00,,---,0.00,VWS V14.00,2013-08-07 07:38:00,
2013-08-07 03:39:00,63.9,62.4,29.78,SSE,165,0.0,0.0,95,0.00,,---,0.00,VWS V14.00,2013-08-07 07:39:00,
2013-08-07 03:40:00,63.9,62.4,29.78,SSE,165,0.0,0.0,95,0.00,,---,0.00,VWS V14.00,2013-08-07 07:40:00,
2013-08-07 03:41:00,63.9,62.4,29.78,SSE,165,0.0,0.0,95,0.00,,---,0.00,VWS V14.00,2013-08-07 07:41:00,
2013-08-07 03:43:00,63.9,62.4,29.78,SSE,165,0.0,0.0,95,0.00,,---,0.00,VWS V14.00,2013-08-07 07:43:00,
2013-08-07 03:44:00,63.9,62.4,29.78,SSE,165,0.0,0.0,95,0.00,,---,0.00,VWS V14.00,2013-08-07 07:44:00,
2013-08-07 03:46:00,63.9,62.4,29.77,SSE,165,0.0,0.0,95,0.00,,---,0.00,VWS V14.00,2013-08-07 07:46:00,
2013-08-07 03:48:00,63.9,62.4,29.77,SSE,165,0.0,0.0,95,0.00,,---,0.00,VWS V14.00,2013-08-07 07:48:00,
2013-08-07 03:49:00,63.9,62.4,29.77,SSE,165,0.0,0.0,95,0.00,,---,0.00,VWS V14.00,2013-08-07 07:49:00,
2013-08-07 03:51:00,63.9,62.4,29.77,SSE,165,0.0,0.0,95,0.00,,---,0.00,VWS V14.00,2013-08-07 07:51:00,
2013-08-07 03:53:00,63.9,62.4,29.77,SSE,165,0.0,0.0,95,0.00,,---,0.00,VWS V14.00,2013-08-07 07:53:00,
2013-08-07 03:54:00,63.9,62.4,29.77,SSE,165,0.0,0.0,95,0.00,,---,0.00,VWS V14.00,2013-08-07 07:54:00,
2013-08-07 03:56:00,63.9,62.4,29.77,SSE,165,0.0,0.0,95,0.00,,---,0.00,VWS V14.00,2013-08-07 07:56:00,
2013-08-07 03:58:00,63.9,62.4,29.77,SSE,165,0.0,0.0,95,0.00,,---,0.00,VWS V14.00,2013-08-07 07:58:00,
2013-08-07 03:59:00,63.9,62.4,29.77,SSE,165,0.0,0.0,95,0.00,,---,0.00,VWS V14.00,2013-08-07 07:59:00,
2013-08-07 04:01:00,63.9,62.4,29.77,SSE,165,0.0,0.0,95,0.00,,---,0.00,VWS V14.00,2013-08-07 08:01:00,
2013-08-07 04:04:00,63.7,62.2,29.77,SSE,165,0.0,0.0,95,0.00,,---,0.00,VWS V14.00,2013-08-07 08:04:00,
2013-08-07 04:06:00,63.7,62.2,29.77,SSE,165,0.0,0.0,95,0.00,,---,0.00,VWS V14.00,2013-08-07 08:06:00,
2013-08-07 04:07:00,63.7,62.2,29.77,SSE,165,0.0,0.0,95,0.00,,---,0.00,VWS V14.00,2013-08-07 08:07:00,
2013-08-07 04:09:00,63.7,62.2,29.77,SSE,165,0.0,0.0,95,0.00,,---,0.00,VWS V14.00,2013-08-07 08:09:00,
2013-08-07 04:11:00,63.5,62.0,29.77,SSE,165,0.0,0.0,95,0.00,,---,0.00,VWS V14.00,2013-08-07 08:11:00,
2013-08-07 04:12:00,63.5,62.0,29.77,SSE,165,0.0,0.0,95,0.00,,---,0.00,VWS V14.00,2013-08-07 08:12:00,
2013-08-07 04:14:00,63.5,62.0,29.77,SSE,165,0.0,0.0,95,0.00,,---,0.00,VWS V14.00,2013-08-07 08:14:00,
2013-08-07 04:16:00,63.4,62.0,29.77,SSE,165,0.0,0.0,95,0.00,,---,0.00,VWS V14.00,2013-08-07 08:16:00,
2013-08-07 04:17:00,63.4,62.0,29.77,SSE,165,0.0,0.0,95,0.00,,---,0.00,VWS V14.00,2013-08-07 08:17:00,
2013-08-07 04:19:00,63.4,62.0,29.77,SSE,165,0.0,0.0,95,0.00,,---,0.00,VWS V14.00,2013-08-07 08:19:00,
2013-08-07 04:21:00,63.4,62.0,29.77,SSE,165,0.0,0.0,95,0.00,,---,0.00,VWS V14.00,2013-08-07 08:21:00,
2013-08-07 04:22:00,63.4,62.0,29.77,SSE,165,0.0,0.0,95,0.00,,---,0.00,VWS V14.00,2013-08-07 08:22:00,
2013-08-07 04:24:00,63.2,61.8,29.77,SSE,165,0.0,0.0,95,0.00,,---,0.00,VWS V14.00,2013-08-07 08:24:00,
2013-08-07 04:25:00,63.2,61.8,29.77,SSE,165,0.0,0.0,95,0.00,,---,0.00,VWS V14.00,2013-08-07 08:25:00,
2013-08-07 04:26:00,63.2,61.8,29.77,SSE,165,0.0,0.0,95,0.00,,---,0.00,VWS V14.00,2013-08-07 08:26:00,
2013-08-07 04:27:00,63.2,61.8,29.77,SSE,165,0.0,0.0,95,0.00,,---,0.00,VWS V14.00,2013-08-07 08:27:00,
2013-08-07 04:29:00,63.2,61.8,29.77,SSE,165,0.0,0.0,95,0.00,,---,0.00,VWS V14.00,2013-08-07 08:29:00,
2013-08-07 04:30:00,63.2,61.8,29.77,SSE,165,0.0,0.0,95,0.00,,---,0.00,VWS V14.00,2013-08-07 08:30:00,
2013-08-07 04:31:00,63.4,62.0,29.77,SSE,165,0.0,0.0,95,0.00,,---,0.00,VWS V14.00,2013-08-07 08:31:00,
2013-08-07 04:32:00,63.4,62.0,29.77,SSE,165,0.0,0.0,95,0.00,,---,0.00,VWS V14.00,2013-08-07 08:32:00,
2013-08-07 04:34:00,63.5,62.0,29.77,SSE,168,0.0,6.0,95,0.00,,---,0.00,VWS V14.00,2013-08-07 08:34:00,
2013-08-07 04:35:00,63.5,62.3,29.77,SSE,168,0.0,6.0,96,0.00,,---,0.00,VWS V14.00,2013-08-07 08:35:00,
2013-08-07 04:36:00,63.7,62.5,29.77,SSE,168,0.0,6.0,96,0.00,,---,0.00,VWS V14.00,2013-08-07 08:36:00,
2013-08-07 04:37:00,63.7,62.5,29.77,SSE,168,0.0,6.0,96,0.00,,---,0.00,VWS V14.00,2013-08-07 08:37:00,
2013-08-07 04:39:00,63.9,62.7,29.77,SSE,168,0.0,6.0,96,0.00,,---,0.00,VWS V14.00,2013-08-07 08:39:00,
2013-08-07 04:40:00,63.9,62.7,29.77,SSE,168,0.0,6.0,96,0.00,,---,0.00,VWS V14.00,2013-08-07 08:40:00,
2013-08-07 04:41:00,63.9,62.7,29.77,SSE,168,0.0,6.0,96,0.00,,---,0.00,VWS V14.00,2013-08-07 08:41:00,
2013-08-07 04:42:00,63.9,62.7,29.77,SSE,168,0.0,6.0,96,0.00,,---,0.00,VWS V14.00,2013-08-07 08:42:00,
2013-08-07 04:43:00,64.0,62.8,29.77,SSE,168,0.0,6.0,96,0.00,,---,0.00,VWS V14.00,2013-08-07 08:43:00,
2013-08-07 04:45:00,64.0,62.5,29.76,SSE,168,0.0,6.0,95,0.00,,---,0.00,VWS V14.00,2013-08-07 08:45:00,
2013-08-07 04:46:00,64.0,62.8,29.76,SSE,168,0.0,6.0,96,0.00,,---,0.00,VWS V14.00,2013-08-07 08:46:00,
2013-08-07 04:47:00,64.0,62.8,29.76,SSE,168,0.0,6.0,96,0.00,,---,0.00,VWS V14.00,2013-08-07 08:47:00,
2013-08-07 04:48:00,64.0,62.8,29.76,SSE,168,0.0,6.0,96,0.00,,---,0.00,VWS V14.00,2013-08-07 08:48:00,
2013-08-07 04:50:00,64.2,63.0,29.76,SSE,168,0.0,6.0,96,0.00,,---,0.00,VWS V14.00,2013-08-07 08:50:00,
2013-08-07 04:51:00,64.2,63.0,29.76,SSE,168,0.0,6.0,96,0.00,,---,0.00,VWS V14.00,2013-08-07 08:51:00,
2013-08-07 04:52:00,64.2,63.0,29.76,SSE,168,0.0,6.0,96,0.00,,---,0.00,VWS V14.00,2013-08-07 08:52:00,
2013-08-07 04:53:00,64.2,63.0,29.76,SSE,168,0.0,6.0,96,0.00,,---,0.00,VWS V14.00,2013-08-07 08:53:00,
2013-08-07 04:56:00,64.3,63.1,29.76,SSE,168,0.0,6.0,96,0.00,,---,0.00,VWS V14.00,2013-08-07 08:56:00,
2013-08-07 04:57:00,64.3,63.1,29.76,SSE,168,0.0,6.0,96,0.00,,---,0.00,VWS V14.00,2013-08-07 08:57:00,
2013-08-07 04:58:00,64.3,63.1,29.76,South,171,0.0,6.0,96,0.00,,---,0.00,VWS V14.00,2013-08-07 08:58:00,
2013-08-07 05:01:00,64.5,63.3,29.75,South,172,0.0,6.0,96,0.00,,---,0.00,VWS V14.00,2013-08-07 09:01:00,
2013-08-07 05:02:00,64.5,63.3,29.75,South,172,0.0,0.0,96,0.00,,---,0.00,VWS V14.00,2013-08-07 09:02:00,
2013-08-07 05:03:00,64.5,63.3,29.75,South,182,0.0,4.0,96,0.00,,---,0.00,VWS V14.00,2013-08-07 09:03:00,
2013-08-07 05:06:00,64.5,63.3,29.75,SSW,193,0.0,9.0,96,0.00,,---,0.00,VWS V14.00,2013-08-07 09:06:00,
2013-08-07 05:07:00,64.5,63.3,29.75,SSW,193,0.0,9.0,96,0.00,,---,0.00,VWS V14.00,2013-08-07 09:07:00,
2013-08-07 05:08:00,64.5,63.3,29.75,SSW,193,0.0,9.0,96,0.00,,---,0.00,VWS V14.00,2013-08-07 09:08:00,
2013-08-07 05:11:00,64.5,63.3,29.75,SSW,193,0.0,9.0,96,0.00,,---,0.00,VWS V14.00,2013-08-07 09:11:00,
2013-08-07 05:12:00,64.5,63.3,29.75,SSW,192,0.0,9.0,96,0.00,,---,0.00,VWS V14.00,2013-08-07 09:12:00,
2013-08-07 05:13:00,64.3,63.1,29.75,SSW,192,0.0,9.0,96,0.00,,---,0.00,VWS V14.00,2013-08-07 09:13:00,
2013-08-07 05:16:00,64.3,63.1,29.75,SSW,192,0.0,9.0,96,0.00,,---,0.00,VWS V14.00,2013-08-07 09:16:00,
2013-08-07 05:17:00,64.3,63.1,29.75,SSW,193,0.0,9.0,96,0.00,,---,0.00,VWS V14.00,2013-08-07 09:17:00,
2013-08-07 05:18:00,64.5,63.3,29.75,SSW,193,0.0,9.0,96,0.00,,---,0.00,VWS V14.00,2013-08-07 09:18:00,
2013-08-07 05:21:00,64.5,63.3,29.75,South,186,0.0,9.0,96,0.00,,---,0.00,VWS V14.00,2013-08-07 09:21:00,
2013-08-07 05:22:00,64.5,63.3,29.75,SSW,193,0.0,9.0,96,0.00,,---,0.00,VWS V14.00,2013-08-07 09:22:00,
2013-08-07 05:24:00,64.5,63.3,29.75,South,185,0.0,9.0,96,0.00,,---,0.00,VWS V14.00,2013-08-07 09:24:00,
2013-08-07 05:26:00,64.3,63.1,29.75,South,188,0.0,9.0,96,0.00,,---,0.00,VWS V14.00,2013-08-07 09:26:00,
2013-08-07 05:27:00,64.3,63.1,29.75,South,188,0.0,9.0,96,0.00,,---,0.00,VWS V14.00,2013-08-07 09:27:00,
2013-08-07 05:29:00,64.3,63.1,29.75,South,188,0.0,9.0,96,0.00,,---,0.00,VWS V14.00,2013-08-07 09:29:00,
2013-08-07 05:31:00,64.3,63.1,29.75,South,188,0.0,9.0,96,0.00,,---,0.00,VWS V14.00,2013-08-07 09:31:00,
2013-08-07 05:32:00,64.3,63.1,29.75,South,188,0.0,9.0,96,0.00,,---,0.00,VWS V14.00,2013-08-07 09:32:00,
2013-08-07 05:33:00,64.3,63.1,29.75,South,188,0.0,9.0,96,0.00,,---,0.00,VWS V14.00,2013-08-07 09:33:00,
2013-08-07 05:34:00,64.3,63.1,29.75,South,188,0.0,9.0,96,0.00,,---,0.00,VWS V14.00,2013-08-07 09:34:00,
2013-08-07 05:36:00,64.3,63.1,29.75,South,188,0.0,9.0,96,0.00,,---,0.00,VWS V14.00,2013-08-07 09:36:00,
2013-08-07 05:37:00,64.3,63.1,29.75,South,188,0.0,9.0,96,0.00,,---,0.00,VWS V14.00,2013-08-07 09:37:00,
2013-08-07 05:38:00,64.3,63.1,29.75,South,188,0.0,9.0,96,0.00,,---,0.00,VWS V14.00,2013-08-07 09:38:00,
2013-08-07 05:39:00,64.3,63.1,29.75,South,188,0.0,9.0,96,0.00,,---,0.00,VWS V14.00,2013-08-07 09:39:00,
2013-08-07 05:42:00,64.3,63.1,29.75,South,188,0.0,9.0,96,0.00,,---,0.00,VWS V14.00,2013-08-07 09:42:00,
2013-08-07 05:43:00,64.3,63.1,29.75,South,188,0.0,9.0,96,0.00,,---,0.00,VWS V14.00,2013-08-07 09:43:00,
2013-08-07 05:44:00,64.3,63.1,29.75,South,188,0.0,9.0,96,0.00,,---,0.00,VWS V14.00,2013-08-07 09:44:00,
2013-08-07 05:47:00,64.3,63.1,29.76,South,188,0.0,9.0,96,0.00,,---,0.00,VWS V14.00,2013-08-07 09:47:00,
2013-08-07 05:48:00,64.3,63.1,29.76,South,188,0.0,9.0,96,0.00,,---,0.00,VWS V14.00,2013-08-07 09:48:00,
2013-08-07 05:50:00,64.3,63.1,29.76,South,188,6.0,9.0,96,0.00,,---,0.00,VWS V14.00,2013-08-07 09:50:00,
2013-08-07 05:52:00,64.3,63.1,29.76,South,188,0.0,9.0,96,0.00,,---,0.00,VWS V14.00,2013-08-07 09:52:00,
2013-08-07 05:53:00,64.3,63.1,29.76,South,188,0.0,9.0,96,0.00,,---,0.00,VWS V14.00,2013-08-07 09:53:00,
2013-08-07 05:55:00,64.3,63.1,29.76,South,188,0.0,9.0,96,0.00,,---,0.00,VWS V14.00,2013-08-07 09:55:00,
2013-08-07 05:57:00,64.3,63.1,29.76,South,188,0.0,9.0,96,0.00,,---,0.00,VWS V14.00,2013-08-07 09:57:00,
2013-08-07 05:58:00,64.3,63.1,29.76,South,188,0.0,9.0,96,0.00,,---,0.00,VWS V14.00,2013-08-07 09:58:00,
2013-08-07 06:00:00,64.2,63.0,29.76,South,188,0.0,9.0,96,0.00,,---,0.00,VWS V14.00,2013-08-07 10:00:00,
2013-08-07 06:02:00,64.2,63.0,29.75,South,188,0.0,0.0,96,0.00,,---,0.00,VWS V14.00,2013-08-07 10:02:00,
2013-08-07 06:03:00,64.2,63.0,29.75,South,188,0.0,0.0,96,0.00,,---,0.00,VWS V14.00,2013-08-07 10:03:00,
2013-08-07 06:05:00,64.2,63.0,29.75,South,188,0.0,0.0,96,0.00,,---,0.00,VWS V14.00,2013-08-07 10:05:00,
2013-08-07 06:07:00,64.2,63.0,29.75,South,188,0.0,0.0,96,0.00,,---,0.00,VWS V14.00,2013-08-07 10:07:00,
2013-08-07 06:08:00,64.2,63.0,29.75,South,188,0.0,0.0,96,0.00,,---,0.00,VWS V14.00,2013-08-07 10:08:00,
2013-08-07 06:09:00,64.2,63.0,29.75,South,188,0.0,0.0,96,0.00,,---,0.00,VWS V14.00,2013-08-07 10:09:00,
2013-08-07 06:10:00,64.2,63.0,29.75,South,188,0.0,0.0,96,0.00,,---,0.00,VWS V14.00,2013-08-07 10:10:00,
2013-08-07 06:12:00,64.2,63.0,29.75,South,188,0.0,0.0,96,0.00,,---,0.00,VWS V14.00,2013-08-07 10:12:00,
2013-08-07 06:13:00,64.2,63.0,29.75,South,188,0.0,0.0,96,0.00,,---,0.00,VWS V14.00,2013-08-07 10:13:00,
2013-08-07 06:14:00,64.2,63.0,29.75,South,188,0.0,0.0,96,0.00,,---,0.00,VWS V14.00,2013-08-07 10:14:00,
2013-08-07 06:15:00,64.2,63.0,29.75,South,188,0.0,0.0,96,0.00,,---,0.00,VWS V14.00,2013-08-07 10:15:00,
2013-08-07 06:17:00,64.2,63.0,29.75,South,188,0.0,0.0,96,0.00,,---,0.00,VWS V14.00,2013-08-07 10:17:00,
2013-08-07 06:18:00,64.2,63.0,29.75,South,188,0.0,0.0,96,0.00,,---,0.00,VWS V14.00,2013-08-07 10:18:00,
2013-08-07 06:19:00,64.2,63.0,29.75,South,188,0.0,0.0,96,0.00,,---,0.00,VWS V14.00,2013-08-07 10:19:00,
2013-08-07 06:20:00,64.2,63.0,29.75,South,188,0.0,0.0,96,0.00,,---,0.00,VWS V14.00,2013-08-07 10:20:00,
2013-08-07 06:23:00,64.2,63.0,29.75,South,188,0.0,0.0,96,0.00,,---,0.00,VWS V14.00,2013-08-07 10:23:00,
2013-08-07 06:24:00,64.2,63.0,29.75,South,188,0.0,0.0,96,0.00,,---,0.00,VWS V14.00,2013-08-07 10:24:00,
2013-08-07 06:25:00,64.2,63.0,29.75,South,188,0.0,0.0,96,0.00,,---,0.00,VWS V14.00,2013-08-07 10:25:00,
2013-08-07 06:28:00,64.2,63.0,29.75,South,188,0.0,0.0,96,0.00,,---,0.00,VWS V14.00,2013-08-07 10:28:00,
2013-08-07 06:29:00,64.2,63.0,29.75,South,188,0.0,0.0,96,0.00,,---,0.00,VWS V14.00,2013-08-07 10:29:00,
2013-08-07 06:30:00,64.2,63.3,29.75,South,188,0.0,0.0,97,0.00,,---,0.00,VWS V14.00,2013-08-07 10:30:00,
2013-08-07 06:33:00,64.3,63.1,29.75,South,188,0.0,0.0,96,0.00,,---,0.00,VWS V14.00,2013-08-07 10:33:00,
2013-08-07 06:34:00,64.3,63.1,29.75,South,188,0.0,0.0,96,0.00,,---,0.00,VWS V14.00,2013-08-07 10:34:00,
2013-08-07 06:35:00,64.3,63.4,29.75,South,188,0.0,0.0,97,0.00,,---,0.00,VWS V14.00,2013-08-07 10:35:00,
2013-08-07 06:38:00,64.3,63.4,29.75,South,188,0.0,0.0,97,0.00,,---,0.00,VWS V14.00,2013-08-07 10:38:00,
2013-08-07 06:39:00,64.3,63.4,29.75,South,188,0.0,0.0,97,0.00,,---,0.00,VWS V14.00,2013-08-07 10:39:00,
2013-08-07 06:41:00,64.3,63.4,29.75,South,188,0.0,0.0,97,0.00,,---,0.00,VWS V14.00,2013-08-07 10:41:00,
2013-08-07 06:43:00,64.5,63.6,29.75,South,188,0.0,0.0,97,0.00,,---,0.00,VWS V14.00,2013-08-07 10:43:00,
2013-08-07 06:44:00,64.5,63.6,29.75,South,188,0.0,0.0,97,0.00,,---,0.00,VWS V14.00,2013-08-07 10:44:00,
2013-08-07 06:45:00,64.5,63.6,29.75,South,188,0.0,0.0,97,0.00,,---,0.00,VWS V14.00,2013-08-07 10:45:00,
2013-08-07 06:46:00,64.5,63.9,29.75,South,188,0.0,0.0,98,0.00,,---,0.00,VWS V14.00,2013-08-07 10:46:00,
2013-08-07 06:48:00,64.7,64.1,29.75,South,188,0.0,0.0,98,0.00,,---,0.00,VWS V14.00,2013-08-07 10:48:00,
2013-08-07 06:49:00,64.7,64.1,29.75,South,188,0.0,0.0,98,0.00,,---,0.00,VWS V14.00,2013-08-07 10:49:00,
2013-08-07 06:51:00,64.7,64.1,29.75,South,188,0.0,0.0,98,0.00,,---,0.00,VWS V14.00,2013-08-07 10:51:00,
2013-08-07 06:53:00,64.7,64.1,29.75,South,188,0.0,0.0,98,0.00,,---,0.00,VWS V14.00,2013-08-07 10:53:00,
2013-08-07 06:54:00,64.7,64.1,29.75,South,188,0.0,0.0,98,0.00,,---,0.00,VWS V14.00,2013-08-07 10:54:00,
2013-08-07 06:55:00,64.7,64.1,29.75,South,188,0.0,0.0,98,0.00,,---,0.00,VWS V14.00,2013-08-07 10:55:00,
2013-08-07 06:56:00,64.7,64.1,29.75,South,188,0.0,0.0,98,0.00,,---,0.00,VWS V14.00,2013-08-07 10:56:00,
2013-08-07 06:57:00,64.7,64.1,29.75,South,188,0.0,0.0,98,0.00,,---,0.00,VWS V14.00,2013-08-07 10:57:00,
2013-08-07 06:59:00,64.7,64.1,29.75,South,186,0.0,0.0,98,0.00,,---,0.00,VWS V14.00,2013-08-07 10:59:00,
2013-08-07 07:00:00,64.8,64.2,29.75,South,186,0.0,0.0,98,0.00,,---,0.00,VWS V14.00,2013-08-07 11:00:00,
2013-08-07 07:01:00,64.8,64.2,29.75,South,186,0.0,0.0,98,0.00,,---,0.00,VWS V14.00,2013-08-07 11:01:00,
2013-08-07 07:02:00,64.8,64.2,29.75,South,186,0.0,0.0,98,0.00,,---,0.00,VWS V14.00,2013-08-07 11:02:00,
2013-08-07 07:04:00,64.8,64.2,29.75,South,186,0.0,0.0,98,0.00,,---,0.00,VWS V14.00,2013-08-07 11:04:00,
2013-08-07 07:05:00,64.8,64.2,29.75,South,186,0.0,0.0,98,0.00,,---,0.00,VWS V14.00,2013-08-07 11:05:00,
2013-08-07 07:06:00,64.8,64.2,29.75,South,186,0.0,0.0,98,0.00,,---,0.00,VWS V14.00,2013-08-07 11:06:00,
2013-08-07 07:07:00,64.8,64.2,29.75,South,186,0.0,0.0,98,0.00,,---,0.00,VWS V14.00,2013-08-07 11:07:00,
2013-08-07 07:09:00,64.8,64.2,29.75,South,186,0.0,0.0,98,0.00,,---,0.00,VWS V14.00,2013-08-07 11:09:00,
2013-08-07 07:10:00,64.8,64.2,29.75,South,186,0.0,0.0,98,0.00,,---,0.00,VWS V14.00,2013-08-07 11:10:00,
2013-08-07 07:11:00,64.8,64.2,29.75,South,186,0.0,0.0,98,0.00,,---,0.00,VWS V14.00,2013-08-07 11:11:00,
2013-08-07 07:12:00,64.8,64.2,29.75,South,186,0.0,0.0,98,0.00,,---,0.00,VWS V14.00,2013-08-07 11:12:00,
2013-08-07 07:14:00,65.0,64.4,29.75,South,186,0.0,0.0,98,0.00,,---,0.00,VWS V14.00,2013-08-07 11:14:00,
2013-08-07 07:15:00,65.0,64.7,29.75,South,186,0.0,0.0,99,0.00,,---,0.00,VWS V14.00,2013-08-07 11:15:00,
2013-08-07 07:16:00,65.0,64.7,29.76,South,186,0.0,0.0,99,0.00,,---,0.00,VWS V14.00,2013-08-07 11:16:00,
2013-08-07 07:17:00,65.0,64.7,29.76,South,186,0.0,0.0,99,0.00,,---,0.00,VWS V14.00,2013-08-07 11:17:00,
2013-08-07 07:19:00,65.0,64.7,29.76,South,186,0.0,0.0,99,0.00,,---,0.00,VWS V14.00,2013-08-07 11:19:00,
2013-08-07 07:20:00,65.0,64.7,29.76,South,186,0.0,0.0,99,0.00,,---,0.00,VWS V14.00,2013-08-07 11:20:00,
2013-08-07 07:22:00,65.0,64.7,29.76,South,186,0.0,0.0,99,0.00,,---,0.00,VWS V14.00,2013-08-07 11:22:00,
2013-08-07 07:24:00,65.0,64.7,29.76,South,186,0.0,0.0,99,0.00,,---,0.00,VWS V14.00,2013-08-07 11:24:00,
2013-08-07 07:25:00,65.2,64.9,29.76,South,186,0.0,0.0,99,0.00,,---,0.00,VWS V14.00,2013-08-07 11:25:00,
2013-08-07 07:27:00,65.2,64.9,29.76,South,186,0.0,0.0,99,0.00,,---,0.00,VWS V14.00,2013-08-07 11:27:00,
2013-08-07 07:29:00,65.2,64.9,29.76,South,186,0.0,0.0,99,0.00,,---,0.00,VWS V14.00,2013-08-07 11:29:00,
2013-08-07 07:30:00,65.2,64.9,29.76,South,186,0.0,0.0,99,0.00,,---,0.00,VWS V14.00,2013-08-07 11:30:00,
2013-08-07 07:32:00,65.2,64.9,29.76,South,186,0.0,0.0,99,0.00,,---,0.00,VWS V14.00,2013-08-07 11:32:00,
2013-08-07 07:34:00,65.2,64.9,29.76,South,186,0.0,0.0,99,0.00,,---,0.00,VWS V14.00,2013-08-07 11:34:00,
2013-08-07 07:35:00,65.3,65.0,29.76,South,186,0.0,0.0,99,0.00,,---,0.00,VWS V14.00,2013-08-07 11:35:00,
2013-08-07 07:37:00,65.3,65.0,29.76,South,186,0.0,0.0,99,0.00,,---,0.00,VWS V14.00,2013-08-07 11:37:00,
2013-08-07 07:39:00,65.3,65.3,29.76,South,186,0.0,0.0,100,0.00,,---,0.00,VWS V14.00,2013-08-07 11:39:00,
2013-08-07 07:40:00,65.3,65.3,29.76,South,186,0.0,0.0,100,0.00,,---,0.00,VWS V14.00,2013-08-07 11:40:00,
2013-08-07 07:41:00,65.3,65.3,29.76,South,186,0.0,0.0,100,0.00,,---,0.00,VWS V14.00,2013-08-07 11:41:00,
2013-08-07 07:42:00,65.3,65.3,29.76,South,186,0.0,0.0,100,0.00,,---,0.00,VWS V14.00,2013-08-07 11:42:00,
2013-08-07 07:44:00,65.5,65.5,29.76,South,186,0.0,0.0,100,0.00,,---,0.00,VWS V14.00,2013-08-07 11:44:00,
2013-08-07 07:45:00,65.5,65.5,29.76,South,186,0.0,0.0,100,0.00,,---,0.00,VWS V14.00,2013-08-07 11:45:00,
2013-08-07 07:46:00,65.6,65.6,29.77,South,186,0.0,0.0,100,0.00,,---,0.00,VWS V14.00,2013-08-07 11:46:00,
2013-08-07 07:48:00,65.6,65.6,29.77,South,186,0.0,0.0,100,0.00,,---,0.00,VWS V14.00,2013-08-07 11:48:00,
2013-08-07 07:49:00,65.6,65.6,29.77,South,186,0.0,0.0,100,0.00,,---,0.00,VWS V14.00,2013-08-07 11:49:00,
2013-08-07 07:50:00,65.6,65.6,29.77,South,186,0.0,0.0,100,0.00,,---,0.00,VWS V14.00,2013-08-07 11:50:00,
2013-08-07 07:51:00,65.6,65.6,29.77,South,186,0.0,0.0,100,0.00,,---,0.00,VWS V14.00,2013-08-07 11:51:00,
2013-08-07 07:53:00,66.0,66.0,29.77,South,186,0.0,0.0,100,0.00,,---,0.00,VWS V14.00,2013-08-07 11:53:00,
2013-08-07 07:54:00,66.0,66.0,29.77,South,186,0.0,0.0,100,0.00,,---,0.00,VWS V14.00,2013-08-07 11:54:00,
2013-08-07 07:55:00,66.0,66.0,29.77,South,186,0.0,0.0,100,0.00,,---,0.00,VWS V14.00,2013-08-07 11:55:00,
2013-08-07 07:56:00,66.0,66.0,29.77,South,186,0.0,0.0,100,0.00,,---,0.00,VWS V14.00,2013-08-07 11:56:00,
2013-08-07 07:58:00,66.1,66.1,29.77,South,186,0.0,0.0,100,0.00,,---,0.00,VWS V14.00,2013-08-07 11:58:00,
2013-08-07 07:59:00,66.1,66.1,29.77,South,186,0.0,0.0,100,0.00,,---,0.00,VWS V14.00,2013-08-07 11:59:00,
2013-08-07 08:01:00,66.3,66.3,29.77,South,186,0.0,0.0,100,0.00,,---,0.00,VWS V14.00,2013-08-07 12:01:00,
2013-08-07 08:03:00,66.3,66.3,29.77,South,186,0.0,0.0,100,0.00,,---,0.00,VWS V14.00,2013-08-07 12:03:00,
2013-08-07 08:04:00,66.3,66.3,29.77,South,186,0.0,0.0,100,0.00,,---,0.00,VWS V14.00,2013-08-07 12:04:00,
2013-08-07 08:06:00,66.4,66.4,29.77,South,186,0.0,0.0,100,0.00,,---,0.00,VWS V14.00,2013-08-07 12:06:00,
2013-08-07 08:08:00,66.4,66.4,29.77,South,186,0.0,0.0,100,0.00,,---,0.00,VWS V14.00,2013-08-07 12:08:00,
2013-08-07 08:10:00,66.4,66.4,29.77,South,186,0.0,0.0,100,0.00,,---,0.00,VWS V14.00,2013-08-07 12:10:00,
2013-08-07 08:11:00,66.4,66.4,29.77,South,186,0.0,0.0,100,0.00,,---,0.00,VWS V14.00,2013-08-07 12:11:00,
2013-08-07 08:13:00,66.4,66.4,29.77,South,186,0.0,0.0,100,0.00,,---,0.00,VWS V14.00,2013-08-07 12:13:00,
2013-08-07 08:15:00,66.4,66.4,29.77,South,186,0.0,0.0,100,0.00,,---,0.00,VWS V14.00,2013-08-07 12:15:00,
2013-08-07 08:16:00,66.4,66.4,29.78,South,186,0.0,0.0,100,0.00,,---,0.00,VWS V14.00,2013-08-07 12:16:00,
2013-08-07 08:17:00,66.4,66.4,29.78,South,186,0.0,0.0,100,0.00,,---,0.00,VWS V14.00,2013-08-07 12:17:00,
2013-08-07 08:18:00,66.4,66.4,29.78,South,186,0.0,0.0,100,0.00,,---,0.00,VWS V14.00,2013-08-07 12:18:00,
2013-08-07 08:20:00,66.4,66.4,29.78,South,186,0.0,0.0,100,0.00,,---,0.00,VWS V14.00,2013-08-07 12:20:00,
2013-08-07 08:21:00,66.4,66.4,29.78,South,186,0.0,0.0,100,0.00,,---,0.00,VWS V14.00,2013-08-07 12:21:00,
2013-08-07 08:22:00,66.4,66.4,29.78,South,186,0.0,0.0,100,0.00,,---,0.00,VWS V14.00,2013-08-07 12:22:00,
2013-08-07 08:23:00,66.4,66.4,29.78,NNW,329,0.0,0.0,100,0.00,,---,0.00,VWS V14.00,2013-08-07 12:23:00,
2013-08-07 08:25:00,66.4,66.4,29.78,NNE,24,4.0,8.0,100,0.00,,---,0.00,VWS V14.00,2013-08-07 12:25:00,
2013-08-07 08:26:00,66.4,66.4,29.78,North,0,2.0,8.0,100,0.00,,---,0.00,VWS V14.00,2013-08-07 12:26:00,
2013-08-07 08:27:00,66.4,66.4,29.78,NW,322,0.0,8.0,100,0.00,,---,0.00,VWS V14.00,2013-08-07 12:27:00,
2013-08-07 08:29:00,66.6,66.6,29.78,NNE,23,2.0,8.0,100,0.00,,---,0.00,VWS V14.00,2013-08-07 12:29:00,
2013-08-07 08:30:00,66.6,66.6,29.80,NNE,30,0.0,8.0,100,0.00,,---,0.00,VWS V14.00,2013-08-07 12:30:00,
2013-08-07 08:31:00,66.6,66.6,29.80,NNE,27,0.0,8.0,100,0.00,,---,0.00,VWS V14.00,2013-08-07 12:31:00,
2013-08-07 08:32:00,66.6,66.6,29.80,NNE,27,0.0,8.0,100,0.00,,---,0.00,VWS V14.00,2013-08-07 12:32:00,
2013-08-07 08:34:00,66.6,66.6,29.80,NNE,27,0.0,8.0,100,0.00,,---,0.00,VWS V14.00,2013-08-07 12:34:00,
2013-08-07 08:35:00,66.6,66.6,29.80,NE,34,0.0,8.0,100,0.00,,---,0.00,VWS V14.00,2013-08-07 12:35:00,
2013-08-07 08:36:00,66.6,66.6,29.80,NE,34,0.0,8.0,100,0.00,,---,0.00,VWS V14.00,2013-08-07 12:36:00,
2013-08-07 08:37:00,66.6,66.6,29.80,NNE,31,0.0,8.0,100,0.00,,---,0.00,VWS V14.00,2013-08-07 12:37:00,
2013-08-07 08:39:00,66.6,66.6,29.80,NNE,31,0.0,8.0,100,0.00,,---,0.00,VWS V14.00,2013-08-07 12:39:00,
2013-08-07 08:40:00,66.4,66.4,29.80,NE,51,0.0,8.0,100,0.00,,---,0.00,VWS V14.00,2013-08-07 12:40:00,
2013-08-07 08:41:00,66.4,66.4,29.80,ENE,62,0.0,8.0,100,0.00,,---,0.00,VWS V14.00,2013-08-07 12:41:00,
2013-08-07 08:42:00,66.4,66.4,29.80,ENE,65,0.0,8.0,100,0.00,,---,0.00,VWS V14.00,2013-08-07 12:42:00,
2013-08-07 08:44:00,66.4,66.4,29.80,ENE,65,0.0,8.0,100,0.00,,---,0.00,VWS V14.00,2013-08-07 12:44:00,
2013-08-07 08:45:00,66.4,66.4,29.80,ENE,65,0.0,8.0,100,0.00,,---,0.00,VWS V14.00,2013-08-07 12:45:00,
2013-08-07 08:46:00,66.4,66.4,29.80,ENE,65,0.0,8.0,100,0.00,,---,0.00,VWS V14.00,2013-08-07 12:46:00,
2013-08-07 08:48:00,66.4,66.4,29.80,ENE,65,0.0,8.0,100,0.00,,---,0.00,VWS V14.00,2013-08-07 12:48:00,
2013-08-07 08:49:00,66.3,66.3,29.80,ENE,65,0.0,8.0,100,0.00,,---,0.00,VWS V14.00,2013-08-07 12:49:00,
2013-08-07 08:50:00,66.3,66.3,29.80,ENE,65,0.0,8.0,100,0.00,,---,0.00,VWS V14.00,2013-08-07 12:50:00,
2013-08-07 08:51:00,66.3,66.3,29.80,ENE,65,0.0,8.0,100,0.00,,---,0.00,VWS V14.00,2013-08-07 12:51:00,
2013-08-07 08:53:00,66.3,66.3,29.80,ENE,65,0.0,8.0,100,0.00,,---,0.00,VWS V14.00,2013-08-07 12:53:00,
2013-08-07 08:54:00,66.3,66.3,29.80,ENE,65,0.0,8.0,100,0.00,,---,0.00,VWS V14.00,2013-08-07 12:54:00,
2013-08-07 08:55:00,66.3,66.3,29.80,ENE,65,0.0,8.0,100,0.00,,---,0.00,VWS V14.00,2013-08-07 12:55:00,
2013-08-07 08:56:00,66.3,66.3,29.80,ENE,65,0.0,8.0,100,0.00,,---,0.00,VWS V14.00,2013-08-07 12:56:00,
2013-08-07 08:58:00,66.3,66.3,29.80,ENE,65,0.0,8.0,100,0.00,,---,0.00,VWS V14.00,2013-08-07 12:58:00,
2013-08-07 08:59:00,66.3,66.3,29.80,ENE,65,0.0,8.0,100,0.00,,---,0.00,VWS V14.00,2013-08-07 12:59:00,
2013-08-07 09:00:00,66.3,66.3,29.80,ENE,65,0.0,8.0,100,0.00,,---,0.00,VWS V14.00,2013-08-07 13:00:00,
2013-08-07 09:01:00,66.3,66.3,29.80,ENE,65,0.0,8.0,100,0.00,,---,0.00,VWS V14.00,2013-08-07 13:01:00,
2013-08-07 09:03:00,66.3,66.3,29.80,NE,48,0.0,0.0,100,0.00,,---,0.00,VWS V14.00,2013-08-07 13:03:00,
2013-08-07 09:04:00,66.3,66.3,29.80,NE,48,0.0,0.0,100,0.00,,---,0.00,VWS V14.00,2013-08-07 13:04:00,
2013-08-07 09:05:00,66.3,66.3,29.80,NE,48,0.0,0.0,100,0.00,,---,0.00,VWS V14.00,2013-08-07 13:05:00,
2013-08-07 09:06:00,66.3,66.3,29.80,NE,48,0.0,0.0,100,0.00,,---,0.00,VWS V14.00,2013-08-07 13:06:00,
2013-08-07 09:07:00,66.3,66.3,29.80,NE,48,0.0,0.0,100,0.00,,---,0.00,VWS V14.00,2013-08-07 13:07:00,
2013-08-07 09:08:00,66.3,66.3,29.80,NE,48,0.0,0.0,100,0.00,,---,0.00,VWS V14.00,2013-08-07 13:08:00,
2013-08-07 09:09:00,66.3,66.3,29.80,NE,48,0.0,0.0,100,0.00,,---,0.00,VWS V14.00,2013-08-07 13:09:00,
2013-08-07 09:10:00,66.4,66.4,29.80,NE,48,0.0,0.0,100,0.00,,---,0.00,VWS V14.00,2013-08-07 13:10:00,
2013-08-07 09:11:00,66.4,66.4,29.80,NE,44,0.0,0.0,100,0.00,,---,0.00,VWS V14.00,2013-08-07 13:11:00,
2013-08-07 09:12:00,66.3,66.3,29.80,NE,41,0.0,0.0,100,0.00,,---,0.00,VWS V14.00,2013-08-07 13:12:00,
2013-08-07 09:13:00,66.3,66.3,29.80,NE,41,0.0,0.0,100,0.00,,---,0.00,VWS V14.00,2013-08-07 13:13:00,
2013-08-07 09:14:00,66.4,66.4,29.80,NE,41,0.0,0.0,100,0.00,,---,0.00,VWS V14.00,2013-08-07 13:14:00,
2013-08-07 09:15:00,66.4,66.4,29.81,NE,41,0.0,0.0,100,0.00,,---,0.00,VWS V14.00,2013-08-07 13:15:00,
2013-08-07 09:16:00,66.4,66.4,29.81,NE,41,0.0,0.0,100,0.00,,---,0.00,VWS V14.00,2013-08-07 13:16:00,
2013-08-07 09:17:00,66.6,66.6,29.81,NE,41,0.0,0.0,100,0.00,,---,0.00,VWS V14.00,2013-08-07 13:17:00,
2013-08-07 09:18:00,66.6,66.6,29.81,NE,41,0.0,0.0,100,0.00,,---,0.00,VWS V14.00,2013-08-07 13:18:00,
2013-08-07 09:19:00,66.6,66.6,29.81,NE,41,0.0,0.0,100,0.00,,---,0.00,VWS V14.00,2013-08-07 13:19:00,
2013-08-07 09:20:00,66.8,66.8,29.81,NE,41,0.0,0.0,100,0.00,,---,0.00,VWS V14.00,2013-08-07 13:20:00,
2013-08-07 09:21:00,66.6,66.6,29.81,NE,41,0.0,0.0,100,0.00,,---,0.00,VWS V14.00,2013-08-07 13:21:00,
2013-08-07 09:22:00,66.8,66.8,29.81,NE,41,0.0,0.0,100,0.00,,---,0.00,VWS V14.00,2013-08-07 13:22:00,
2013-08-07 09:23:00,66.9,66.9,29.81,NE,47,0.0,0.0,100,0.00,,---,0.00,VWS V14.00,2013-08-07 13:23:00,
2013-08-07 09:24:00,67.3,67.3,29.81,NE,48,0.0,0.0,100,0.00,,---,0.00,VWS V14.00,2013-08-07 13:24:00,
2013-08-07 09:25:00,67.3,67.3,29.81,East,79,0.0,0.0,100,0.00,,---,0.00,VWS V14.00,2013-08-07 13:25:00,
2013-08-07 09:26:00,67.4,67.4,29.81,ESE,110,0.0,0.0,100,0.00,,---,0.00,VWS V14.00,2013-08-07 13:26:00,
2013-08-07 09:28:00,67.8,67.8,29.81,SE,126,0.0,4.0,100,0.00,,---,0.00,VWS V14.00,2013-08-07 13:28:00,
2013-08-07 09:29:00,67.8,67.8,29.81,SE,126,0.0,4.0,100,0.00,,---,0.00,VWS V14.00,2013-08-07 13:29:00,
2013-08-07 09:30:00,67.9,67.6,29.78,East,100,0.0,4.0,99,0.00,,---,0.00,VWS V14.00,2013-08-07 13:30:00,
2013-08-07 09:31:00,68.1,67.8,29.78,East,100,0.0,4.0,99,0.00,,---,0.00,VWS V14.00,2013-08-07 13:31:00,
2013-08-07 09:33:00,67.9,67.3,29.78,ESE,103,0.0,4.0,98,0.00,,---,0.00,VWS V14.00,2013-08-07 13:33:00,
2013-08-07 09:34:00,67.9,67.3,29.78,ESE,103,0.0,4.0,98,0.00,,---,0.00,VWS V14.00,2013-08-07 13:34:00,
2013-08-07 09:35:00,67.8,66.6,29.78,ESE,103,0.0,4.0,96,0.00,,---,0.00,VWS V14.00,2013-08-07 13:35:00,
2013-08-07 09:36:00,67.8,66.3,29.78,ESE,103,0.0,4.0,95,0.00,,---,0.00,VWS V14.00,2013-08-07 13:36:00,
2013-08-07 09:39:00,67.8,66.6,29.78,ESE,102,0.0,4.0,96,0.00,,---,0.00,VWS V14.00,2013-08-07 13:39:00,
2013-08-07 09:40:00,67.8,66.3,29.78,ESE,102,0.0,4.0,95,0.00,,---,0.00,VWS V14.00,2013-08-07 13:40:00,
2013-08-07 09:41:00,67.8,66.3,29.78,ESE,102,0.0,4.0,95,0.00,,---,0.00,VWS V14.00,2013-08-07 13:41:00,
2013-08-07 09:44:00,67.6,66.1,29.78,ESE,102,0.0,4.0,95,0.00,,---,0.00,VWS V14.00,2013-08-07 13:44:00,
2013-08-07 09:45:00,67.6,65.8,29.78,ESE,102,0.0,4.0,94,0.00,,---,0.00,VWS V14.00,2013-08-07 13:45:00,
2013-08-07 09:46:00,67.6,65.8,29.81,ESE,102,0.0,4.0,94,0.00,,---,0.00,VWS V14.00,2013-08-07 13:46:00,
2013-08-07 09:49:00,67.8,66.0,29.81,ESE,102,0.0,4.0,94,0.00,,---,0.00,VWS V14.00,2013-08-07 13:49:00,
2013-08-07 09:50:00,67.8,66.0,29.81,ESE,102,0.0,4.0,94,0.00,,---,0.00,VWS V14.00,2013-08-07 13:50:00,
2013-08-07 09:52:00,67.9,65.8,29.81,ESE,102,0.0,4.0,93,0.00,,---,0.00,VWS V14.00,2013-08-07 13:52:00,
2013-08-07 09:55:00,68.1,66.0,29.81,ESE,102,0.0,4.0,93,0.00,,---,0.00,VWS V14.00,2013-08-07 13:55:00,
2013-08-07 09:57:00,68.3,66.2,29.81,ESE,102,0.0,4.0,93,0.00,,---,0.00,VWS V14.00,2013-08-07 13:57:00,
2013-08-07 10:00:00,68.1,65.7,29.81,ESE,103,0.0,4.0,92,0.00,,---,0.00,VWS V14.00,2013-08-07 14:00:00,
2013-08-07 10:02:00,68.1,65.7,29.81,ESE,102,0.0,0.0,92,0.00,,---,0.00,VWS V14.00,2013-08-07 14:02:00,
2013-08-07 10:05:00,68.1,65.7,29.81,ESE,102,0.0,0.0,92,0.00,,---,0.00,VWS V14.00,2013-08-07 14:05:00,
2013-08-07 10:07:00,68.3,65.9,29.81,ESE,103,0.0,0.0,92,0.00,,---,0.00,VWS V14.00,2013-08-07 14:07:00,
2013-08-07 10:10:00,68.3,65.9,29.81,ESE,102,0.0,0.0,92,0.00,,---,0.00,VWS V14.00,2013-08-07 14:10:00,
2013-08-07 10:12:00,68.3,65.9,29.81,ESE,102,0.0,0.0,92,0.00,,---,0.00,VWS V14.00,2013-08-07 14:12:00,
2013-08-07 10:15:00,68.3,65.9,29.81,ESE,103,0.0,0.0,92,0.00,,---,0.00,VWS V14.00,2013-08-07 14:15:00,
2013-08-07 10:16:00,68.3,65.9,29.81,ESE,102,0.0,0.0,92,0.00,,---,0.00,VWS V14.00,2013-08-07 14:16:00,
2013-08-07 10:17:00,68.3,65.9,29.81,ESE,103,0.0,0.0,92,0.00,,---,0.00,VWS V14.00,2013-08-07 14:17:00,
2013-08-07 10:20:00,68.3,65.9,29.81,ESE,102,0.0,0.0,92,0.00,,---,0.00,VWS V14.00,2013-08-07 14:20:00,
2013-08-07 10:21:00,68.3,65.9,29.81,ESE,103,0.0,0.0,92,0.00,,---,0.00,VWS V14.00,2013-08-07 14:21:00,
2013-08-07 10:23:00,68.3,65.9,29.81,ESE,103,0.0,0.0,92,0.00,,---,0.00,VWS V14.00,2013-08-07 14:23:00,
2013-08-07 10:26:00,68.3,65.9,29.81,ESE,103,0.0,0.0,92,0.00,,---,0.00,VWS V14.00,2013-08-07 14:26:00,
2013-08-07 10:28:00,68.3,65.9,29.81,ESE,103,0.0,0.0,92,0.00,,---,0.00,VWS V14.00,2013-08-07 14:28:00,
2013-08-07 10:31:00,68.3,65.9,29.82,ESE,103,0.0,0.0,92,0.00,,---,0.00,VWS V14.00,2013-08-07 14:31:00,
2013-08-07 10:32:00,68.3,65.9,29.82,ESE,103,0.0,0.0,92,0.00,,---,0.00,VWS V14.00,2013-08-07 14:32:00,
2013-08-07 10:33:00,68.3,65.9,29.82,ESE,103,0.0,0.0,92,0.00,,---,0.00,VWS V14.00,2013-08-07 14:33:00,
2013-08-07 10:36:00,68.3,65.9,29.82,ESE,102,0.0,0.0,92,0.00,,---,0.00,VWS V14.00,2013-08-07 14:36:00,
2013-08-07 10:37:00,68.3,65.9,29.82,ESE,102,0.0,0.0,92,0.00,,---,0.00,VWS V14.00,2013-08-07 14:37:00,
2013-08-07 10:38:00,68.1,65.7,29.82,ESE,102,0.0,0.0,92,0.00,,---,0.00,VWS V14.00,2013-08-07 14:38:00,
2013-08-07 10:41:00,68.1,65.7,29.82,ESE,103,0.0,0.0,92,0.00,,---,0.00,VWS V14.00,2013-08-07 14:41:00,
2013-08-07 10:42:00,68.1,65.7,29.82,ESE,103,0.0,0.0,92,0.00,,---,0.00,VWS V14.00,2013-08-07 14:42:00,
2013-08-07 10:43:00,68.1,65.7,29.82,ESE,103,0.0,0.0,92,0.00,,---,0.00,VWS V14.00,2013-08-07 14:43:00,
2013-08-07 10:46:00,68.1,65.7,29.83,ESE,103,0.0,0.0,92,0.00,,---,0.00,VWS V14.00,2013-08-07 14:46:00,
2013-08-07 10:47:00,68.1,65.7,29.83,ESE,103,0.0,0.0,92,0.00,,---,0.00,VWS V14.00,2013-08-07 14:47:00,
2013-08-07 10:48:00,68.1,65.7,29.83,ESE,103,0.0,0.0,92,0.00,,---,0.00,VWS V14.00,2013-08-07 14:48:00,
2013-08-07 10:51:00,68.3,65.9,29.83,ESE,103,0.0,0.0,92,0.00,,---,0.00,VWS V14.00,2013-08-07 14:51:00,
2013-08-07 10:52:00,68.3,65.9,29.83,ESE,103,0.0,0.0,92,0.00,,---,0.00,VWS V14.00,2013-08-07 14:52:00,
2013-08-07 10:53:00,68.3,65.9,29.83,ESE,103,0.0,0.0,92,0.00,,---,0.00,VWS V14.00,2013-08-07 14:53:00,
2013-08-07 10:56:00,68.3,65.9,29.83,North,357,0.0,2.0,92,0.00,,---,0.00,VWS V14.00,2013-08-07 14:56:00,
2013-08-07 10:57:00,68.3,65.9,29.83,North,356,0.0,2.0,92,0.00,,---,0.00,VWS V14.00,2013-08-07 14:57:00,
2013-08-07 10:58:00,68.1,65.7,29.83,North,357,0.0,2.0,92,0.00,,---,0.00,VWS V14.00,2013-08-07 14:58:00,
2013-08-07 11:01:00,68.1,65.4,29.83,North,0,0.0,0.0,91,0.01,,---,0.01,VWS V14.00,2013-08-07 15:01:00,
2013-08-07 11:02:00,68.1,65.4,29.83,North,0,0.0,0.0,91,0.01,,---,0.01,VWS V14.00,2013-08-07 15:02:00,
2013-08-07 11:03:00,67.9,65.2,29.83,West,260,0.0,0.0,91,0.01,,---,0.01,VWS V14.00,2013-08-07 15:03:00,
2013-08-07 11:07:00,67.8,65.1,29.83,NW,320,1.0,7.0,91,0.02,,---,0.02,VWS V14.00,2013-08-07 15:07:00,
2013-08-07 11:09:00,67.8,65.1,29.83,WNW,296,6.0,7.0,91,0.02,,---,0.02,VWS V14.00,2013-08-07 15:09:00,
2013-08-07 11:12:00,67.6,64.9,29.83,NW,304,0.0,7.0,91,0.03,,---,0.03,VWS V14.00,2013-08-07 15:12:00,
2013-08-07 11:14:00,67.6,64.9,29.83,WNW,296,4.0,8.0,91,0.04,,---,0.04,VWS V14.00,2013-08-07 15:14:00,
2013-08-07 11:17:00,67.6,64.9,29.82,WNW,285,0.0,9.0,91,0.05,,---,0.05,VWS V14.00,2013-08-07 15:17:00,
2013-08-07 11:18:00,67.4,64.7,29.82,WNW,291,0.0,9.0,91,0.05,,---,0.05,VWS V14.00,2013-08-07 15:18:00,
2013-08-07 11:19:00,67.4,64.7,29.82,WNW,291,0.0,9.0,91,0.06,,---,0.06,VWS V14.00,2013-08-07 15:19:00,
2013-08-07 11:22:00,67.3,64.6,29.82,WNW,291,0.0,9.0,91,0.06,,---,0.06,VWS V14.00,2013-08-07 15:22:00,
2013-08-07 11:23:00,67.3,64.6,29.82,WNW,289,0.0,9.0,91,0.06,,---,0.06,VWS V14.00,2013-08-07 15:23:00,
2013-08-07 11:24:00,67.3,64.3,29.82,WNW,289,0.0,9.0,90,0.07,,---,0.07,VWS V14.00,2013-08-07 15:24:00,
2013-08-07 11:27:00,67.1,64.4,29.82,WNW,289,0.0,9.0,91,0.08,,---,0.08,VWS V14.00,2013-08-07 15:27:00,
2013-08-07 11:28:00,67.1,64.4,29.82,WNW,289,0.0,9.0,91,0.08,,---,0.08,VWS V14.00,2013-08-07 15:28:00,
2013-08-07 11:29:00,67.1,64.4,29.82,SSW,202,0.0,9.0,91,0.09,,---,0.09,VWS V14.00,2013-08-07 15:29:00,
2013-08-07 11:32:00,67.1,64.4,29.80,SSW,202,0.0,9.0,91,0.09,,---,0.09,VWS V14.00,2013-08-07 15:32:00,
2013-08-07 11:33:00,67.1,64.4,29.80,SSW,202,0.0,9.0,91,0.09,,---,0.09,VWS V14.00,2013-08-07 15:33:00,
2013-08-07 11:34:00,66.9,64.2,29.80,SSE,167,0.0,9.0,91,0.10,,---,0.10,VWS V14.00,2013-08-07 15:34:00,
2013-08-07 11:37:00,66.9,64.2,29.80,SSW,205,0.0,9.0,91,0.10,,---,0.10,VWS V14.00,2013-08-07 15:37:00,
2013-08-07 11:38:00,66.9,64.2,29.80,SSW,205,0.0,9.0,91,0.10,,---,0.10,VWS V14.00,2013-08-07 15:38:00,
2013-08-07 11:39:00,66.9,64.2,29.80,SSE,161,0.0,9.0,91,0.11,,---,0.11,VWS V14.00,2013-08-07 15:39:00,
2013-08-07 11:40:00,66.9,64.2,29.80,SSE,161,0.0,9.0,91,0.11,,---,0.11,VWS V14.00,2013-08-07 15:40:00,
2013-08-07 11:43:00,66.9,64.2,29.80,South,186,4.0,9.0,91,0.11,,---,0.11,VWS V14.00,2013-08-07 15:43:00,
2013-08-07 11:44:00,66.9,64.5,29.80,SSW,196,9.0,11.0,92,0.11,,---,0.11,VWS V14.00,2013-08-07 15:44:00,
2013-08-07 11:45:00,66.9,64.5,29.80,SSE,158,7.0,11.0,92,0.11,,---,0.11,VWS V14.00,2013-08-07 15:45:00,
2013-08-07 11:48:00,66.8,64.4,29.77,SSE,150,0.0,11.0,92,0.11,,---,0.11,VWS V14.00,2013-08-07 15:48:00,
2013-08-07 11:50:00,66.8,64.4,29.77,SE,127,2.0,13.0,92,0.12,,---,0.12,VWS V14.00,2013-08-07 15:50:00,
2013-08-07 11:53:00,66.6,64.2,29.77,SSE,148,14.0,15.0,92,0.12,,---,0.12,VWS V14.00,2013-08-07 15:53:00,
2013-08-07 11:55:00,66.6,64.2,29.77,SE,127,1.0,15.0,92,0.12,,---,0.12,VWS V14.00,2013-08-07 15:55:00,
2013-08-07 11:58:00,66.6,64.2,29.77,South,179,7.0,15.0,92,0.12,,---,0.12,VWS V14.00,2013-08-07 15:58:00,
2013-08-07 11:59:00,66.6,64.2,29.77,SSW,195,0.0,15.0,92,0.12,,---,0.12,VWS V14.00,2013-08-07 15:59:00,
2013-08-07 12:00:00,66.6,64.5,29.77,South,191,0.0,15.0,93,0.12,,---,0.12,VWS V14.00,2013-08-07 16:00:00,
2013-08-07 12:03:00,66.8,64.7,29.76,SE,136,0.0,15.0,93,0.11,,---,0.12,VWS V14.00,2013-08-07 16:03:00,
2013-08-07 12:04:00,66.8,64.7,29.76,SE,143,0.0,15.0,93,0.11,,---,0.12,VWS V14.00,2013-08-07 16:04:00,
2013-08-07 12:05:00,66.8,64.7,29.76,South,169,0.0,15.0,93,0.11,,---,0.12,VWS V14.00,2013-08-07 16:05:00,
2013-08-07 12:06:00,66.9,64.8,29.76,South,169,0.0,15.0,93,0.11,,---,0.12,VWS V14.00,2013-08-07 16:06:00,
2013-08-07 12:08:00,67.1,65.0,29.76,South,169,0.0,15.0,93,0.11,,---,0.12,VWS V14.00,2013-08-07 16:08:00,
2013-08-07 12:09:00,67.1,65.0,29.76,South,169,0.0,15.0,93,0.11,,---,0.12,VWS V14.00,2013-08-07 16:09:00,
2013-08-07 12:10:00,67.1,65.0,29.76,SSE,162,0.0,15.0,93,0.11,,---,0.12,VWS V14.00,2013-08-07 16:10:00,
2013-08-07 12:11:00,67.3,65.2,29.76,SSE,167,0.0,15.0,93,0.11,,---,0.12,VWS V14.00,2013-08-07 16:11:00,
2013-08-07 12:13:00,67.4,65.3,29.76,South,184,0.0,15.0,93,0.11,,---,0.12,VWS V14.00,2013-08-07 16:13:00,
2013-08-07 12:14:00,67.3,65.2,29.76,South,184,0.0,15.0,93,0.11,,---,0.12,VWS V14.00,2013-08-07 16:14:00,
2013-08-07 12:15:00,67.4,65.3,29.76,South,184,0.0,15.0,93,0.11,,---,0.12,VWS V14.00,2013-08-07 16:15:00,
2013-08-07 12:16:00,67.4,65.3,29.76,South,184,0.0,15.0,93,0.11,,---,0.12,VWS V14.00,2013-08-07 16:16:00,
2013-08-07 12:18:00,67.9,66.1,29.76,South,169,0.0,15.0,94,0.11,,---,0.12,VWS V14.00,2013-08-07 16:18:00,
2013-08-07 12:19:00,68.1,66.3,29.76,SE,137,0.0,15.0,94,0.11,,---,0.12,VWS V14.00,2013-08-07 16:19:00,
2013-08-07 12:21:00,68.1,66.3,29.76,SE,130,0.0,15.0,94,0.11,,---,0.12,VWS V14.00,2013-08-07 16:21:00,
2013-08-07 12:24:00,68.3,66.5,29.76,SSE,167,0.0,15.0,94,0.11,,---,0.12,VWS V14.00,2013-08-07 16:24:00,
2013-08-07 12:26:00,68.6,66.8,29.76,ESE,112,0.0,15.0,94,0.11,,---,0.12,VWS V14.00,2013-08-07 16:26:00,
2013-08-07 12:29:00,68.6,66.8,29.76,SSW,199,0.0,15.0,94,0.11,,---,0.12,VWS V14.00,2013-08-07 16:29:00,
2013-08-07 12:30:00,68.8,67.0,29.76,SSW,199,0.0,15.0,94,0.11,,---,0.12,VWS V14.00,2013-08-07 16:30:00,
2013-08-07 12:31:00,68.8,66.7,29.74,SSW,199,0.0,15.0,93,0.11,,---,0.12,VWS V14.00,2013-08-07 16:31:00,
2013-08-07 12:34:00,68.9,66.8,29.74,SE,145,0.0,15.0,93,0.11,,---,0.12,VWS V14.00,2013-08-07 16:34:00,
2013-08-07 12:35:00,69.1,67.0,29.74,SE,145,0.0,15.0,93,0.11,,---,0.12,VWS V14.00,2013-08-07 16:35:00,
2013-08-07 12:36:00,68.9,66.8,29.74,SSE,150,0.0,15.0,93,0.11,,---,0.12,VWS V14.00,2013-08-07 16:36:00,
2013-08-07 12:39:00,68.9,66.5,29.74,South,181,0.0,15.0,92,0.11,,---,0.12,VWS V14.00,2013-08-07 16:39:00,
2013-08-07 12:40:00,68.9,66.5,29.74,South,181,0.0,15.0,92,0.11,,---,0.12,VWS V14.00,2013-08-07 16:40:00,
2013-08-07 12:41:00,68.9,66.5,29.74,South,181,0.0,15.0,92,0.11,,---,0.12,VWS V14.00,2013-08-07 16:41:00,
2013-08-07 12:44:00,68.9,66.5,29.74,South,181,0.0,15.0,92,0.11,,---,0.12,VWS V14.00,2013-08-07 16:44:00,
2013-08-07 12:45:00,68.9,66.5,29.76,South,181,0.0,15.0,92,0.11,,---,0.12,VWS V14.00,2013-08-07 16:45:00,
2013-08-07 12:46:00,68.9,66.5,29.76,South,181,0.0,15.0,92,0.11,,---,0.12,VWS V14.00,2013-08-07 16:46:00,
2013-08-07 12:47:00,68.9,66.5,29.76,South,181,0.0,15.0,92,0.11,,---,0.12,VWS V14.00,2013-08-07 16:47:00,
2013-08-07 12:49:00,69.4,67.0,29.76,South,181,0.0,15.0,92,0.11,,---,0.12,VWS V14.00,2013-08-07 16:49:00,
2013-08-07 12:50:00,69.6,67.2,29.76,South,181,0.0,15.0,92,0.11,,---,0.12,VWS V14.00,2013-08-07 16:50:00,
2013-08-07 12:51:00,69.6,67.2,29.76,South,181,0.0,15.0,92,0.11,,---,0.12,VWS V14.00,2013-08-07 16:51:00,
2013-08-07 12:52:00,69.6,66.9,29.76,South,181,0.0,15.0,91,0.11,,---,0.12,VWS V14.00,2013-08-07 16:52:00,
2013-08-07 12:54:00,69.6,66.9,29.76,SW,236,7.0,15.0,91,0.11,,---,0.12,VWS V14.00,2013-08-07 16:54:00,
2013-08-07 12:56:00,69.4,66.7,29.76,SW,220,0.0,15.0,91,0.11,,---,0.12,VWS V14.00,2013-08-07 16:56:00,
2013-08-07 12:57:00,69.6,66.9,29.76,SSW,209,0.0,15.0,91,0.11,,---,0.12,VWS V14.00,2013-08-07 16:57:00,
2013-08-07 13:00:00,69.9,67.2,29.75,SSE,162,0.0,15.0,91,0.11,,---,0.12,VWS V14.00,2013-08-07 17:00:00,
2013-08-07 13:01:00,70.3,67.6,29.75,South,186,7.0,7.0,91,0.00,,---,0.12,VWS V14.00,2013-08-07 17:01:00,
2013-08-07 13:02:00,70.3,67.6,29.75,SSW,198,2.0,7.0,91,0.00,,---,0.12,VWS V14.00,2013-08-07 17:02:00,
2013-08-07 13:05:00,70.8,68.1,29.75,WSW,256,0.0,11.0,91,0.00,,---,0.12,VWS V14.00,2013-08-07 17:05:00,
2013-08-07 13:06:00,70.9,68.2,29.75,WNW,291,0.0,11.0,91,0.00,,---,0.12,VWS V14.00,2013-08-07 17:06:00,
2013-08-07 13:07:00,71.1,68.3,29.75,West,280,0.0,11.0,91,0.00,,---,0.12,VWS V14.00,2013-08-07 17:07:00,
2013-08-07 13:11:00,71.5,68.7,29.75,SSW,193,8.0,11.0,91,0.00,,---,0.12,VWS V14.00,2013-08-07 17:11:00,
2013-08-07 13:12:00,71.6,68.2,29.75,SW,216,9.0,11.0,89,0.00,,---,0.12,VWS V14.00,2013-08-07 17:12:00,
2013-08-07 13:16:00,71.3,67.6,29.76,SSW,195,1.0,13.0,88,0.00,,---,0.12,VWS V14.00,2013-08-07 17:16:00,
2013-08-07 13:17:00,71.5,67.4,29.76,SSW,199,1.0,13.0,87,0.00,,---,0.12,VWS V14.00,2013-08-07 17:17:00,
2013-08-07 13:21:00,71.3,67.2,29.76,SSW,192,7.0,13.0,87,0.00,,---,0.12,VWS V14.00,2013-08-07 17:21:00,
2013-08-07 13:22:00,71.1,67.0,29.76,SSE,158,4.0,13.0,87,0.00,,---,0.12,VWS V14.00,2013-08-07 17:22:00,
2013-08-07 13:23:00,71.1,67.0,29.76,SSW,202,2.0,13.0,87,0.00,,---,0.12,VWS V14.00,2013-08-07 17:23:00,
2013-08-07 13:26:00,71.3,67.2,29.76,SSW,192,9.0,13.0,87,0.00,,---,0.12,VWS V14.00,2013-08-07 17:26:00,
2013-08-07 13:27:00,71.3,67.2,29.76,South,189,7.0,13.0,87,0.00,,---,0.12,VWS V14.00,2013-08-07 17:27:00,
2013-08-07 13:28:00,71.3,67.2,29.76,SSW,199,6.0,13.0,87,0.00,,---,0.12,VWS V14.00,2013-08-07 17:28:00,
2013-08-07 13:31:00,71.8,67.7,29.75,SSW,212,1.0,13.0,87,0.00,,---,0.12,VWS V14.00,2013-08-07 17:31:00,
2013-08-07 13:32:00,72.1,68.3,29.75,SSW,203,1.0,13.0,88,0.00,,---,0.12,VWS V14.00,2013-08-07 17:32:00,
2013-08-07 13:33:00,72.3,68.2,29.75,SSW,203,0.0,13.0,87,0.00,,---,0.12,VWS V14.00,2013-08-07 17:33:00,
2013-08-07 13:36:00,73.2,68.8,29.75,South,175,8.0,13.0,86,0.00,,---,0.12,VWS V14.00,2013-08-07 17:36:00,
2013-08-07 13:37:00,73.3,68.2,29.75,SW,217,6.0,13.0,84,0.00,,---,0.12,VWS V14.00,2013-08-07 17:37:00,
2013-08-07 13:38:00,73.3,68.2,29.75,SSW,213,9.0,13.0,84,0.00,,---,0.12,VWS V14.00,2013-08-07 17:38:00,
2013-08-07 13:42:00,74.0,68.2,29.75,SSW,199,10.0,15.0,82,0.00,,---,0.12,VWS V14.00,2013-08-07 17:42:00,
2013-08-07 13:43:00,73.9,67.7,29.75,South,189,10.0,15.0,81,0.00,,---,0.12,VWS V14.00,2013-08-07 17:43:00,
2013-08-07 13:47:00,74.2,67.6,29.75,WNW,299,6.0,15.0,80,0.00,,---,0.12,VWS V14.00,2013-08-07 17:47:00,
2013-08-07 13:48:00,74.2,67.6,29.75,SSW,210,11.0,15.0,80,0.00,,---,0.12,VWS V14.00,2013-08-07 17:48:00,
2013-08-07 13:52:00,74.7,67.4,29.75,WSW,246,7.0,16.0,78,0.00,,---,0.12,VWS V14.00,2013-08-07 17:52:00,
2013-08-07 13:53:00,74.7,67.0,29.75,WSW,237,2.0,16.0,77,0.00,,---,0.12,VWS V14.00,2013-08-07 17:53:00,
2013-08-07 13:57:00,75.4,68.4,29.75,SSW,205,4.0,16.0,79,0.00,,---,0.12,VWS V14.00,2013-08-07 17:57:00,
2013-08-07 13:58:00,75.6,68.3,29.75,SSW,200,0.0,16.0,78,0.00,,---,0.12,VWS V14.00,2013-08-07 17:58:00,
2013-08-07 14:02:00,76.1,68.4,29.75,SSW,192,7.0,9.0,77,0.00,,---,0.12,VWS V14.00,2013-08-07 18:02:00,
2013-08-07 14:03:00,76.0,68.3,29.75,SW,215,10.0,10.0,77,0.00,,---,0.12,VWS V14.00,2013-08-07 18:03:00,
2013-08-07 14:04:00,76.0,67.5,29.75,SW,217,8.0,13.0,75,0.00,,---,0.12,VWS V14.00,2013-08-07 18:04:00,
2013-08-07 14:07:00,76.1,68.0,29.75,SSW,202,0.0,14.0,76,0.00,,---,0.12,VWS V14.00,2013-08-07 18:07:00,
2013-08-07 14:08:00,76.1,67.2,29.75,SSW,209,8.0,14.0,74,0.00,,---,0.12,VWS V14.00,2013-08-07 18:08:00,
2013-08-07 14:09:00,76.3,67.8,29.75,SSW,213,8.0,14.0,75,0.00,,---,0.12,VWS V14.00,2013-08-07 18:09:00,
2013-08-07 14:13:00,76.8,67.1,29.75,SSW,210,15.0,18.0,72,0.00,,---,0.12,VWS V14.00,2013-08-07 18:13:00,
2013-08-07 14:14:00,76.8,67.1,29.75,West,264,4.0,18.0,72,0.00,,---,0.12,VWS V14.00,2013-08-07 18:14:00,
2013-08-07 14:18:00,77.4,67.7,29.75,SSW,205,0.0,18.0,72,0.00,,---,0.12,VWS V14.00,2013-08-07 18:18:00,
2013-08-07 14:19:00,77.4,67.7,29.75,NNE,23,0.0,18.0,72,0.00,,---,0.12,VWS V14.00,2013-08-07 18:19:00,
2013-08-07 14:23:00,77.4,67.7,29.75,SSW,210,11.0,18.0,72,0.00,,---,0.12,VWS V14.00,2013-08-07 18:23:00,
2013-08-07 14:24:00,77.6,67.9,29.75,West,268,11.0,18.0,72,0.00,,---,0.12,VWS V14.00,2013-08-07 18:24:00,
2013-08-07 14:28:00,78.6,68.8,29.75,SSW,193,0.0,18.0,72,0.00,,---,0.12,VWS V14.00,2013-08-07 18:28:00,
2013-08-07 14:29:00,78.8,69.0,29.75,SSW,193,0.0,18.0,72,0.00,,---,0.12,VWS V14.00,2013-08-07 18:29:00,
2013-08-07 14:33:00,78.8,68.2,29.75,West,267,2.0,18.0,70,0.00,,---,0.12,VWS V14.00,2013-08-07 18:33:00,
2013-08-07 14:34:00,78.8,68.2,29.75,WNW,291,0.0,18.0,70,0.00,,---,0.12,VWS V14.00,2013-08-07 18:34:00,
2013-08-07 14:35:00,79.0,68.8,29.75,West,280,9.0,18.0,71,0.00,,---,0.12,VWS V14.00,2013-08-07 18:35:00,
2013-08-07 14:39:00,79.2,69.8,29.75,West,280,10.0,18.0,73,0.00,,---,0.12,VWS V14.00,2013-08-07 18:39:00,
2013-08-07 14:40:00,79.2,69.0,29.75,West,275,11.0,18.0,71,0.00,,---,0.12,VWS V14.00,2013-08-07 18:40:00,
2013-08-07 14:44:00,79.8,69.6,29.75,WNW,292,8.0,18.0,71,0.00,,---,0.12,VWS V14.00,2013-08-07 18:44:00,
2013-08-07 14:45:00,79.6,68.5,29.75,WNW,302,1.0,18.0,69,0.00,,---,0.12,VWS V14.00,2013-08-07 18:45:00,
2013-08-07 14:49:00,79.9,68.8,29.75,West,278,8.0,18.0,69,0.00,,---,0.12,VWS V14.00,2013-08-07 18:49:00,
2013-08-07 14:50:00,79.9,68.8,29.75,West,268,9.0,18.0,69,0.00,,---,0.12,VWS V14.00,2013-08-07 18:50:00,
2013-08-07 14:54:00,80.3,69.2,29.75,SW,232,6.0,18.0,69,0.00,,---,0.12,VWS V14.00,2013-08-07 18:54:00,
2013-08-07 14:55:00,80.3,69.2,29.75,WSW,237,4.0,18.0,69,0.00,,---,0.12,VWS V14.00,2013-08-07 18:55:00,
2013-08-07 14:56:00,80.3,68.8,29.75,SSW,203,0.0,18.0,68,0.00,,---,0.12,VWS V14.00,2013-08-07 18:56:00,
2013-08-07 14:59:00,80.7,68.7,29.75,SSW,195,8.0,18.0,67,0.00,,---,0.12,VWS V14.00,2013-08-07 18:59:00,
2013-08-07 15:00:00,80.7,68.7,29.75,SSW,205,7.0,18.0,67,0.00,,---,0.12,VWS V14.00,2013-08-07 19:00:00,
2013-08-07 15:01:00,80.7,68.3,29.75,WSW,239,8.0,18.0,66,0.00,,---,0.12,VWS V14.00,2013-08-07 19:01:00,
2013-08-07 15:04:00,80.7,70.0,29.75,WSW,258,0.0,9.0,70,0.00,,---,0.12,VWS V14.00,2013-08-07 19:04:00,
2013-08-07 15:05:00,80.7,70.0,29.75,SW,230,1.0,9.0,70,0.00,,---,0.12,VWS V14.00,2013-08-07 19:05:00,
2013-08-07 15:06:00,81.1,69.1,29.75,SSW,213,0.0,9.0,67,0.00,,---,0.12,VWS V14.00,2013-08-07 19:06:00,
2013-08-07 15:10:00,81.6,70.0,29.75,SW,219,0.0,9.0,68,0.00,,---,0.12,VWS V14.00,2013-08-07 19:10:00,
2013-08-07 15:11:00,81.6,69.2,29.75,SW,232,0.0,9.0,66,0.00,,---,0.12,VWS V14.00,2013-08-07 19:11:00,
2013-08-07 15:15:00,81.2,69.6,29.75,SW,226,0.0,9.0,68,0.00,,---,0.12,VWS V14.00,2013-08-07 19:15:00,
2013-08-07 15:16:00,81.4,67.6,29.74,WSW,237,0.0,9.0,63,0.00,,---,0.12,VWS V14.00,2013-08-07 19:16:00,
2013-08-07 15:20:00,81.4,68.5,29.74,West,264,6.0,9.0,65,0.00,,---,0.12,VWS V14.00,2013-08-07 19:20:00,
2013-08-07 15:21:00,81.2,68.3,29.74,WNW,291,0.0,9.0,65,0.00,,---,0.12,VWS V14.00,2013-08-07 19:21:00,
2013-08-07 15:22:00,81.2,69.6,29.74,WSW,247,6.0,9.0,68,0.00,,---,0.12,VWS V14.00,2013-08-07 19:22:00,
2013-08-07 15:25:00,81.4,68.1,29.74,SW,216,2.0,9.0,64,0.00,,---,0.12,VWS V14.00,2013-08-07 19:25:00,
2013-08-07 15:26:00,81.4,68.5,29.74,WSW,253,0.0,9.0,65,0.00,,---,0.12,VWS V14.00,2013-08-07 19:26:00,
2013-08-07 15:27:00,81.6,68.2,29.74,WNW,298,0.0,9.0,64,0.00,,---,0.12,VWS V14.00,2013-08-07 19:27:00,
2013-08-07 15:30:00,81.6,69.2,29.74,SSW,202,6.0,10.0,66,0.00,,---,0.12,VWS V14.00,2013-08-07 19:30:00,
2013-08-07 15:31:00,81.8,68.9,29.74,WSW,239,8.0,10.0,65,0.00,,---,0.12,VWS V14.00,2013-08-07 19:31:00,
2013-08-07 15:32:00,81.6,68.7,29.74,West,261,6.0,10.0,65,0.00,,---,0.12,VWS V14.00,2013-08-07 19:32:00,
2013-08-07 15:35:00,81.6,69.6,29.74,WNW,291,4.0,13.0,67,0.00,,---,0.12,VWS V14.00,2013-08-07 19:35:00,
2013-08-07 15:36:00,81.6,69.6,29.74,SSW,213,13.0,13.0,67,0.00,,---,0.12,VWS V14.00,2013-08-07 19:36:00,
2013-08-07 15:37:00,81.6,69.2,29.74,SW,215,1.0,13.0,66,0.00,,---,0.12,VWS V14.00,2013-08-07 19:37:00,
2013-08-07 15:40:00,82.2,69.7,29.74,SW,223,10.0,13.0,66,0.00,,---,0.12,VWS V14.00,2013-08-07 19:40:00,
2013-08-07 15:41:00,82.2,69.7,29.74,SW,223,1.0,13.0,66,0.00,,---,0.12,VWS V14.00,2013-08-07 19:41:00,
2013-08-07 15:42:00,82.0,69.1,29.74,SSW,212,4.0,13.0,65,0.00,,---,0.12,VWS V14.00,2013-08-07 19:42:00,
2013-08-07 15:46:00,82.2,70.2,29.74,SSW,193,6.0,13.0,67,0.00,,---,0.12,VWS V14.00,2013-08-07 19:46:00,
2013-08-07 15:47:00,82.4,69.0,29.74,SSW,203,4.0,13.0,64,0.00,,---,0.12,VWS V14.00,2013-08-07 19:47:00,
2013-08-07 15:51:00,82.6,68.7,29.74,South,184,7.0,14.0,63,0.00,,---,0.12,VWS V14.00,2013-08-07 19:51:00,
2013-08-07 15:52:00,82.6,68.3,29.74,SW,219,0.0,14.0,62,0.00,,---,0.12,VWS V14.00,2013-08-07 19:52:00,
2013-08-07 15:56:00,82.4,69.5,29.74,SW,219,8.0,14.0,65,0.00,,---,0.12,VWS V14.00,2013-08-07 19:56:00,
2013-08-07 15:57:00,82.2,69.3,29.74,SSW,205,1.0,14.0,65,0.00,,---,0.12,VWS V14.00,2013-08-07 19:57:00,
2013-08-07 16:01:00,82.4,69.5,29.74,SSE,168,4.0,14.0,65,0.00,,---,0.12,VWS V14.00,2013-08-07 20:01:00,
2013-08-07 16:02:00,82.6,69.2,29.74,SSW,195,7.0,7.0,64,0.00,,---,0.12,VWS V14.00,2013-08-07 20:02:00,
2013-08-07 16:06:00,82.4,69.5,29.74,SW,216,4.0,14.0,65,0.00,,---,0.12,VWS V14.00,2013-08-07 20:06:00,
2013-08-07 16:07:00,82.6,68.7,29.74,SW,224,0.0,14.0,63,0.00,,---,0.12,VWS V14.00,2013-08-07 20:07:00,
2013-08-07 16:08:00,82.6,68.7,29.74,SSW,203,2.0,14.0,63,0.00,,---,0.12,VWS V14.00,2013-08-07 20:08:00,
2013-08-07 16:11:00,83.2,69.8,29.74,SW,223,0.0,14.0,64,0.00,,---,0.12,VWS V14.00,2013-08-07 20:11:00,
2013-08-07 16:12:00,83.2,68.8,29.74,SW,223,0.0,14.0,62,0.00,,---,0.12,VWS V14.00,2013-08-07 20:12:00,
2013-08-07 16:13:00,83.0,68.7,29.74,SSE,167,0.0,14.0,62,0.00,,---,0.12,VWS V14.00,2013-08-07 20:13:00,
2013-08-07 16:16:00,82.8,68.9,29.74,SSW,206,8.0,14.0,63,0.00,,---,0.12,VWS V14.00,2013-08-07 20:16:00,
2013-08-07 16:17:00,82.8,68.5,29.74,SSW,208,2.0,14.0,62,0.00,,---,0.12,VWS V14.00,2013-08-07 20:17:00,
2013-08-07 16:18:00,82.6,68.7,29.74,SSW,208,8.0,14.0,63,0.00,,---,0.12,VWS V14.00,2013-08-07 20:18:00,
2013-08-07 16:21:00,81.8,68.0,29.74,SSW,198,7.0,14.0,63,0.00,,---,0.12,VWS V14.00,2013-08-07 20:21:00,
2013-08-07 16:22:00,81.8,68.0,29.74,SW,233,6.0,14.0,63,0.00,,---,0.12,VWS V14.00,2013-08-07 20:22:00,
2013-08-07 16:23:00,82.0,69.5,29.74,SW,215,8.0,14.0,66,0.00,,---,0.12,VWS V14.00,2013-08-07 20:23:00,
2013-08-07 16:27:00,82.2,68.4,29.74,SSW,209,9.0,16.0,63,0.00,,---,0.12,VWS V14.00,2013-08-07 20:27:00,
2013-08-07 16:28:00,82.2,68.4,29.74,WSW,250,8.0,16.0,63,0.00,,---,0.12,VWS V14.00,2013-08-07 20:28:00,
2013-08-07 16:32:00,82.2,69.3,29.74,West,261,0.0,16.0,65,0.00,,---,0.12,VWS V14.00,2013-08-07 20:32:00,
2013-08-07 16:33:00,82.4,69.9,29.74,SW,217,0.0,16.0,66,0.00,,---,0.12,VWS V14.00,2013-08-07 20:33:00,
2013-08-07 16:37:00,82.0,68.2,29.74,SSW,205,9.0,16.0,63,0.00,,---,0.12,VWS V14.00,2013-08-07 20:37:00,
2013-08-07 16:38:00,81.8,68.4,29.74,WSW,257,7.0,16.0,64,0.00,,---,0.12,VWS V14.00,2013-08-07 20:38:00,
2013-08-07 16:39:00,81.8,68.4,29.74,SSW,198,0.0,16.0,64,0.00,,---,0.12,VWS V14.00,2013-08-07 20:39:00,
2013-08-07 16:42:00,81.8,68.9,29.74,SW,216,7.0,17.0,65,0.00,,---,0.12,VWS V14.00,2013-08-07 20:42:00,
2013-08-07 16:44:00,82.0,68.6,29.74,WSW,237,0.0,17.0,64,0.00,,---,0.12,VWS V14.00,2013-08-07 20:44:00,
2013-08-07 16:47:00,82.4,69.5,29.74,SW,232,11.0,17.0,65,0.00,,---,0.12,VWS V14.00,2013-08-07 20:47:00,
2013-08-07 16:48:00,82.4,69.5,29.74,SW,232,11.0,17.0,65,0.00,,---,0.12,VWS V14.00,2013-08-07 20:48:00,
2013-08-07 16:49:00,82.4,69.0,29.74,South,182,1.0,17.0,64,0.00,,---,0.12,VWS V14.00,2013-08-07 20:49:00,
2013-08-07 16:52:00,82.8,68.9,29.74,SSW,193,0.0,17.0,63,0.00,,---,0.12,VWS V14.00,2013-08-07 20:52:00,
2013-08-07 16:53:00,82.6,68.7,29.74,SW,229,6.0,17.0,63,0.00,,---,0.12,VWS V14.00,2013-08-07 20:53:00,
2013-08-07 16:54:00,82.6,69.2,29.74,SW,226,2.0,17.0,64,0.00,,---,0.12,VWS V14.00,2013-08-07 20:54:00,
2013-08-07 16:57:00,82.8,70.3,29.74,West,275,1.0,17.0,66,0.00,,---,0.12,VWS V14.00,2013-08-07 20:57:00,
2013-08-07 16:58:00,82.8,69.4,29.74,WNW,301,6.0,17.0,64,0.00,,---,0.12,VWS V14.00,2013-08-07 20:58:00,
2013-08-07 16:59:00,82.8,68.9,29.74,WSW,256,0.0,17.0,63,0.00,,---,0.12,VWS V14.00,2013-08-07 20:59:00,
2013-08-07 17:02:00,82.4,69.5,29.74,SSW,209,0.0,2.0,65,0.00,,---,0.12,VWS V14.00,2013-08-07 21:02:00,
2013-08-07 17:03:00,82.4,69.9,29.74,SE,124,1.0,7.0,66,0.00,,---,0.12,VWS V14.00,2013-08-07 21:03:00,
2013-08-07 17:04:00,82.6,69.7,29.74,SE,143,2.0,15.0,65,0.00,,---,0.12,VWS V14.00,2013-08-07 21:04:00,
2013-08-07 17:05:00,82.6,69.7,29.74,SSW,205,8.0,15.0,65,0.00,,---,0.12,VWS V14.00,2013-08-07 21:05:00,
2013-08-07 17:07:00,82.8,69.4,29.74,SW,215,8.0,18.0,64,0.00,,---,0.12,VWS V14.00,2013-08-07 21:07:00,
2013-08-07 17:08:00,82.6,69.2,29.74,SSW,206,10.0,18.0,64,0.00,,---,0.12,VWS V14.00,2013-08-07 21:08:00,
2013-08-07 17:09:00,82.6,68.7,29.74,SSE,151,0.0,18.0,63,0.00,,---,0.12,VWS V14.00,2013-08-07 21:09:00,
2013-08-07 17:10:00,82.4,68.6,29.74,SW,222,9.0,18.0,63,0.00,,---,0.12,VWS V14.00,2013-08-07 21:10:00,
2013-08-07 17:12:00,82.6,69.2,29.74,SW,215,6.0,18.0,64,0.00,,---,0.12,VWS V14.00,2013-08-07 21:12:00,
2013-08-07 17:13:00,82.6,69.2,29.74,SSW,200,6.0,18.0,64,0.00,,---,0.12,VWS V14.00,2013-08-07 21:13:00,
2013-08-07 17:14:00,82.8,69.8,29.74,WSW,253,0.0,18.0,65,0.00,,---,0.12,VWS V14.00,2013-08-07 21:14:00,
2013-08-07 17:15:00,82.6,68.7,29.74,SW,234,0.0,18.0,63,0.00,,---,0.12,VWS V14.00,2013-08-07 21:15:00,
2013-08-07 17:18:00,83.0,70.9,29.73,WNW,295,0.0,18.0,67,0.00,,---,0.12,VWS V14.00,2013-08-07 21:18:00,
2013-08-07 17:19:00,83.0,70.9,29.73,SSW,192,2.0,18.0,67,0.00,,---,0.12,VWS V14.00,2013-08-07 21:19:00,
2013-08-07 17:21:00,83.4,70.4,29.73,SSW,202,0.0,18.0,65,0.00,,---,0.12,VWS V14.00,2013-08-07 21:21:00,
2013-08-07 17:23:00,83.2,69.8,29.73,SSW,209,2.0,18.0,64,0.00,,---,0.12,VWS V14.00,2013-08-07 21:23:00,
2013-08-07 17:24:00,83.2,69.8,29.73,West,265,8.0,18.0,64,0.00,,---,0.12,VWS V14.00,2013-08-07 21:24:00,
2013-08-07 17:25:00,83.2,69.8,29.73,WNW,294,2.0,18.0,64,0.00,,---,0.12,VWS V14.00,2013-08-07 21:25:00,
2013-08-07 17:26:00,83.0,69.6,29.73,SSW,212,6.0,18.0,64,0.00,,---,0.12,VWS V14.00,2013-08-07 21:26:00,
2013-08-07 17:28:00,82.8,69.8,29.73,South,185,0.0,18.0,65,0.00,,---,0.12,VWS V14.00,2013-08-07 21:28:00,
2013-08-07 17:29:00,82.8,70.3,29.73,SSW,202,11.0,18.0,66,0.00,,---,0.12,VWS V14.00,2013-08-07 21:29:00,
2013-08-07 17:30:00,82.8,69.4,29.73,SSW,210,8.0,18.0,64,0.00,,---,0.12,VWS V14.00,2013-08-07 21:30:00,
2013-08-07 17:31:00,83.0,69.6,29.73,West,281,7.0,18.0,64,0.00,,---,0.12,VWS V14.00,2013-08-07 21:31:00,
2013-08-07 17:33:00,82.8,69.8,29.73,SW,236,4.0,18.0,65,0.00,,---,0.12,VWS V14.00,2013-08-07 21:33:00,
2013-08-07 17:34:00,82.8,69.8,29.73,WNW,291,0.0,18.0,65,0.00,,---,0.12,VWS V14.00,2013-08-07 21:34:00,
2013-08-07 17:35:00,82.6,70.1,29.73,WNW,298,0.0,18.0,66,0.00,,---,0.12,VWS V14.00,2013-08-07 21:35:00,
2013-08-07 17:36:00,82.6,69.7,29.73,SW,217,1.0,18.0,65,0.00,,---,0.12,VWS V14.00,2013-08-07 21:36:00,
2013-08-07 17:38:00,82.4,69.5,29.73,SW,233,13.0,18.0,65,0.00,,---,0.12,VWS V14.00,2013-08-07 21:38:00,
2013-08-07 17:39:00,82.4,69.5,29.73,WSW,246,4.0,18.0,65,0.00,,---,0.12,VWS V14.00,2013-08-07 21:39:00,
2013-08-07 17:40:00,82.4,69.5,29.73,SSW,196,0.0,18.0,65,0.00,,---,0.12,VWS V14.00,2013-08-07 21:40:00,
2013-08-07 17:41:00,82.2,69.3,29.73,WSW,247,0.0,18.0,65,0.00,,---,0.12,VWS V14.00,2013-08-07 21:41:00,
2013-08-07 17:44:00,82.6,71.0,29.73,SSW,208,2.0,18.0,68,0.00,,---,0.12,VWS V14.00,2013-08-07 21:44:00,
2013-08-07 17:45:00,82.8,70.7,29.73,SSW,200,7.0,18.0,67,0.00,,---,0.12,VWS V14.00,2013-08-07 21:45:00,
2013-08-07 17:46:00,82.8,70.7,29.73,SSW,200,6.0,18.0,67,0.00,,---,0.12,VWS V14.00,2013-08-07 21:46:00,
2013-08-07 17:49:00,82.6,70.1,29.73,SW,219,7.0,18.0,66,0.00,,---,0.12,VWS V14.00,2013-08-07 21:49:00,
2013-08-07 17:50:00,82.6,71.0,29.73,SW,226,0.0,18.0,68,0.00,,---,0.12,VWS V14.00,2013-08-07 21:50:00,
2013-08-07 17:52:00,82.6,70.5,29.73,NW,312,4.0,18.0,67,0.00,,---,0.12,VWS V14.00,2013-08-07 21:52:00,
2013-08-07 17:54:00,82.4,70.8,29.73,SSW,200,0.0,18.0,68,0.00,,---,0.12,VWS V14.00,2013-08-07 21:54:00,
2013-08-07 17:55:00,82.2,70.6,29.73,SW,215,6.0,18.0,68,0.00,,---,0.12,VWS V14.00,2013-08-07 21:55:00,
2013-08-07 17:57:00,82.0,71.3,29.73,SW,224,0.0,18.0,70,0.00,,---,0.12,VWS V14.00,2013-08-07 21:57:00,
2013-08-07 17:59:00,82.0,70.8,29.73,SSW,209,4.0,18.0,69,0.00,,---,0.12,VWS V14.00,2013-08-07 21:59:00,
2013-08-07 18:00:00,82.0,70.8,29.73,West,280,0.0,18.0,69,0.00,,---,0.12,VWS V14.00,2013-08-07 22:00:00,
2013-08-07 18:02:00,82.0,71.3,29.73,NW,304,0.0,8.0,70,0.00,,---,0.12,VWS V14.00,2013-08-07 22:02:00,
2013-08-07 18:04:00,82.0,70.8,29.73,SW,220,6.0,11.0,69,0.00,,---,0.12,VWS V14.00,2013-08-07 22:04:00,
2013-08-07 18:05:00,82.0,70.8,29.73,South,172,8.0,11.0,69,0.00,,---,0.12,VWS V14.00,2013-08-07 22:05:00,
2013-08-07 18:06:00,82.0,70.8,29.73,South,191,7.0,13.0,69,0.00,,---,0.12,VWS V14.00,2013-08-07 22:06:00,
2013-08-07 18:07:00,82.0,70.8,29.73,SW,215,8.0,13.0,69,0.00,,---,0.12,VWS V14.00,2013-08-07 22:07:00,
2013-08-07 18:09:00,82.0,70.8,29.73,WSW,246,0.0,13.0,69,0.00,,---,0.12,VWS V14.00,2013-08-07 22:09:00,
2013-08-07 18:10:00,81.8,70.6,29.73,SSW,199,0.0,13.0,69,0.00,,---,0.12,VWS V14.00,2013-08-07 22:10:00,
2013-08-07 18:11:00,81.8,71.9,29.73,SSW,199,0.0,13.0,72,0.00,,---,0.12,VWS V14.00,2013-08-07 22:11:00,
2013-08-07 18:12:00,82.0,71.3,29.73,SSW,206,8.0,13.0,70,0.00,,---,0.12,VWS V14.00,2013-08-07 22:12:00,
2013-08-07 18:14:00,82.0,70.8,29.73,West,261,8.0,14.0,69,0.00,,---,0.12,VWS V14.00,2013-08-07 22:14:00,
2013-08-07 18:15:00,82.0,70.8,29.73,SW,223,0.0,14.0,69,0.00,,---,0.12,VWS V14.00,2013-08-07 22:15:00,
2013-08-07 18:16:00,81.8,70.6,29.73,South,176,0.0,14.0,69,0.00,,---,0.12,VWS V14.00,2013-08-07 22:16:00,
2013-08-07 18:17:00,81.8,70.6,29.73,WSW,241,0.0,14.0,69,0.00,,---,0.12,VWS V14.00,2013-08-07 22:17:00,
2013-08-07 18:19:00,81.6,70.4,29.73,WNW,287,4.0,14.0,69,0.00,,---,0.12,VWS V14.00,2013-08-07 22:19:00,
2013-08-07 18:20:00,81.6,70.4,29.73,WNW,287,4.0,14.0,69,0.00,,---,0.12,VWS V14.00,2013-08-07 22:20:00,
2013-08-07 18:21:00,81.6,70.4,29.73,WSW,244,0.0,14.0,69,0.00,,---,0.12,VWS V14.00,2013-08-07 22:21:00,
2013-08-07 18:23:00,81.8,71.1,29.73,NW,318,2.0,14.0,70,0.00,,---,0.12,VWS V14.00,2013-08-07 22:23:00,
2013-08-07 18:25:00,81.8,71.1,29.73,SSW,206,0.0,14.0,70,0.00,,---,0.12,VWS V14.00,2013-08-07 22:25:00,
2013-08-07 18:27:00,81.6,71.3,29.73,South,188,0.0,14.0,71,0.00,,---,0.12,VWS V14.00,2013-08-07 22:27:00,
2013-08-07 18:28:00,81.4,71.1,29.73,SSW,210,0.0,14.0,71,0.00,,---,0.12,VWS V14.00,2013-08-07 22:28:00,
2013-08-07 18:30:00,81.6,70.9,29.73,SSW,205,0.0,14.0,70,0.00,,---,0.12,VWS V14.00,2013-08-07 22:30:00,
2013-08-07 18:32:00,81.6,70.9,29.72,South,181,0.0,14.0,70,0.00,,---,0.12,VWS V14.00,2013-08-07 22:32:00,
2013-08-07 18:33:00,81.6,70.9,29.72,SSW,206,4.0,14.0,70,0.00,,---,0.12,VWS V14.00,2013-08-07 22:33:00,
2013-08-07 18:35:00,81.2,70.5,29.72,SSE,147,1.0,14.0,70,0.00,,---,0.12,VWS V14.00,2013-08-07 22:35:00,
2013-08-07 18:36:00,80.9,71.0,29.72,SSE,162,0.0,14.0,72,0.00,,---,0.12,VWS V14.00,2013-08-07 22:36:00,
2013-08-07 18:37:00,80.7,70.4,29.72,SSW,210,0.0,14.0,71,0.00,,---,0.12,VWS V14.00,2013-08-07 22:37:00,
2013-08-07 18:38:00,80.5,70.2,29.72,SSW,203,4.0,14.0,71,0.00,,---,0.12,VWS V14.00,2013-08-07 22:38:00,
2013-08-07 18:40:00,80.5,70.7,29.72,SSW,212,1.0,14.0,72,0.00,,---,0.12,VWS V14.00,2013-08-07 22:40:00,
2013-08-07 18:41:00,80.5,70.7,29.72,SSW,212,1.0,14.0,72,0.00,,---,0.12,VWS V14.00,2013-08-07 22:41:00,
2013-08-07 18:43:00,80.7,70.8,29.72,SW,216,7.0,14.0,72,0.00,,---,0.12,VWS V14.00,2013-08-07 22:43:00,
2013-08-07 18:45:00,80.9,70.6,29.73,SSW,206,9.0,14.0,71,0.00,,---,0.12,VWS V14.00,2013-08-07 22:45:00,
2013-08-07 18:46:00,80.9,70.6,29.73,SSW,195,1.0,14.0,71,0.00,,---,0.12,VWS V14.00,2013-08-07 22:46:00,
2013-08-07 18:48:00,80.9,71.0,29.73,NW,311,0.0,14.0,72,0.00,,---,0.12,VWS V14.00,2013-08-07 22:48:00,
2013-08-07 18:50:00,80.7,70.8,29.73,SW,229,4.0,14.0,72,0.00,,---,0.12,VWS V14.00,2013-08-07 22:50:00,
2013-08-07 18:51:00,80.7,70.8,29.73,SSW,212,0.0,14.0,72,0.00,,---,0.12,VWS V14.00,2013-08-07 22:51:00,
2013-08-07 18:53:00,80.5,71.5,29.73,SSW,203,0.0,14.0,74,0.00,,---,0.12,VWS V14.00,2013-08-07 22:53:00,
2013-08-07 18:55:00,80.7,71.7,29.73,SSW,205,0.0,14.0,74,0.00,,---,0.12,VWS V14.00,2013-08-07 22:55:00,
2013-08-07 18:56:00,80.7,71.7,29.73,SSW,205,0.0,14.0,74,0.00,,---,0.12,VWS V14.00,2013-08-07 22:56:00,
2013-08-07 18:58:00,80.9,71.8,29.73,SSW,206,0.0,14.0,74,0.00,,---,0.12,VWS V14.00,2013-08-07 22:58:00,
2013-08-07 19:00:00,80.9,71.0,29.73,SSW,199,0.0,14.0,72,0.00,,---,0.12,VWS V14.00,2013-08-07 23:00:00,
2013-08-07 19:01:00,80.9,71.0,29.73,SSW,199,0.0,14.0,72,0.00,,---,0.12,VWS V14.00,2013-08-07 23:01:00,
2013-08-07 19:03:00,80.9,71.4,29.73,SSW,200,0.0,6.0,73,0.00,,---,0.12,VWS V14.00,2013-08-07 23:03:00,
2013-08-07 19:05:00,80.7,71.2,29.73,SSW,195,1.0,7.0,73,0.00,,---,0.12,VWS V14.00,2013-08-07 23:05:00,
2013-08-07 19:06:00,80.7,71.2,29.73,SSW,195,0.0,7.0,73,0.00,,---,0.12,VWS V14.00,2013-08-07 23:06:00,
2013-08-07 19:08:00,80.9,71.0,29.73,SW,232,7.0,8.0,72,0.00,,---,0.12,VWS V14.00,2013-08-07 23:08:00,
2013-08-07 19:09:00,80.9,71.0,29.73,SW,232,0.0,8.0,72,0.00,,---,0.12,VWS V14.00,2013-08-07 23:09:00,
2013-08-07 19:11:00,80.5,71.1,29.73,West,263,1.0,13.0,73,0.00,,---,0.12,VWS V14.00,2013-08-07 23:11:00,
2013-08-07 19:14:00,80.5,70.7,29.73,SW,217,0.0,13.0,72,0.00,,---,0.12,VWS V14.00,2013-08-07 23:14:00,
2013-08-07 19:16:00,80.5,71.1,29.73,SW,215,0.0,13.0,73,0.00,,---,0.12,VWS V14.00,2013-08-07 23:16:00,
2013-08-07 19:19:00,80.3,70.9,29.73,SW,223,0.0,13.0,73,0.00,,---,0.12,VWS V14.00,2013-08-07 23:19:00,
2013-08-07 19:21:00,79.9,70.9,29.73,SW,223,0.0,13.0,74,0.00,,---,0.12,VWS V14.00,2013-08-07 23:21:00,
2013-08-07 19:22:00,79.9,70.9,29.73,SW,215,6.0,13.0,74,0.00,,---,0.12,VWS V14.00,2013-08-07 23:22:00,
2013-08-07 19:24:00,79.6,71.0,29.73,SW,229,0.0,13.0,75,0.00,,---,0.12,VWS V14.00,2013-08-07 23:24:00,
2013-08-07 19:26:00,79.4,70.8,29.73,SSW,199,0.0,13.0,75,0.00,,---,0.12,VWS V14.00,2013-08-07 23:26:00,
2013-08-07 19:27:00,79.4,70.8,29.73,SSW,199,1.0,13.0,75,0.00,,---,0.12,VWS V14.00,2013-08-07 23:27:00,
2013-08-07 19:29:00,79.2,70.6,29.73,SSW,200,7.0,13.0,75,0.00,,---,0.12,VWS V14.00,2013-08-07 23:29:00,
2013-08-07 19:31:00,79.2,70.6,29.73,SSW,212,6.0,13.0,75,0.00,,---,0.12,VWS V14.00,2013-08-07 23:31:00,
2013-08-07 19:32:00,79.2,70.6,29.73,SSW,210,0.0,13.0,75,0.00,,---,0.12,VWS V14.00,2013-08-07 23:32:00,
2013-08-07 19:34:00,79.2,70.6,29.73,SSW,209,7.0,13.0,75,0.00,,---,0.12,VWS V14.00,2013-08-07 23:34:00,
2013-08-07 19:35:00,79.2,70.6,29.73,SSW,209,7.0,13.0,75,0.00,,---,0.12,VWS V14.00,2013-08-07 23:35:00,
2013-08-07 19:36:00,79.0,70.8,29.73,SSW,203,0.0,13.0,76,0.00,,---,0.12,VWS V14.00,2013-08-07 23:36:00,
2013-08-07 19:37:00,79.0,70.8,29.73,SSW,203,0.0,13.0,76,0.00,,---,0.12,VWS V14.00,2013-08-07 23:37:00,
2013-08-07 19:39:00,79.0,70.8,29.73,SSW,200,0.0,13.0,76,0.00,,---,0.12,VWS V14.00,2013-08-07 23:39:00,
2013-08-07 19:40:00,79.0,70.8,29.73,SSW,200,0.0,13.0,76,0.00,,---,0.12,VWS V14.00,2013-08-07 23:40:00,
2013-08-07 19:41:00,78.8,70.6,29.73,SSW,206,0.0,13.0,76,0.00,,---,0.12,VWS V14.00,2013-08-07 23:41:00,
2013-08-07 19:42:00,78.8,70.6,29.73,SSW,205,0.0,13.0,76,0.00,,---,0.12,VWS V14.00,2013-08-07 23:42:00,
2013-08-07 19:44:00,79.0,71.2,29.73,SSW,205,0.0,13.0,77,0.00,,---,0.12,VWS V14.00,2013-08-07 23:44:00,
2013-08-07 19:45:00,79.0,71.2,29.73,SSW,205,0.0,13.0,77,0.00,,---,0.12,VWS V14.00,2013-08-07 23:45:00,
2013-08-07 19:47:00,79.0,71.2,29.74,SSW,199,0.0,13.0,77,0.00,,---,0.12,VWS V14.00,2013-08-07 23:47:00,
2013-08-07 19:50:00,79.0,71.2,29.74,SSW,203,0.0,13.0,77,0.00,,---,0.12,VWS V14.00,2013-08-07 23:50:00,
2013-08-07 19:52:00,79.0,71.2,29.74,SSW,203,0.0,13.0,77,0.00,,---,0.12,VWS V14.00,2013-08-07 23:52:00,
2013-08-07 19:53:00,79.0,71.2,29.74,SSW,203,0.0,13.0,77,0.00,,---,0.12,VWS V14.00,2013-08-07 23:53:00,
2013-08-07 19:55:00,79.0,71.2,29.74,SSW,203,0.0,13.0,77,0.00,,---,0.12,VWS V14.00,2013-08-07 23:55:00,
2013-08-07 19:57:00,78.8,71.0,29.74,SSW,203,0.0,13.0,77,0.00,,---,0.12,VWS V14.00,2013-08-07 23:57:00,
2013-08-07 19:58:00,78.8,71.0,29.74,SSW,203,0.0,13.0,77,0.00,,---,0.12,VWS V14.00,2013-08-07 23:58:00,
2013-08-07 20:00:00,78.6,71.2,29.74,South,186,0.0,13.0,78,0.00,,---,0.12,VWS V14.00,2013-08-08 00:00:00,
2013-08-07 20:02:00,78.6,71.2,29.74,South,185,0.0,0.0,78,0.00,,---,0.12,VWS V14.00,2013-08-08 00:02:00,
2013-08-07 20:03:00,78.5,71.1,29.74,South,185,0.0,0.0,78,0.00,,---,0.12,VWS V14.00,2013-08-08 00:03:00,
2013-08-07 20:05:00,78.5,71.1,29.74,South,185,0.0,0.0,78,0.00,,---,0.12,VWS V14.00,2013-08-08 00:05:00,
2013-08-07 20:07:00,78.3,70.9,29.74,South,185,0.0,0.0,78,0.00,,---,0.12,VWS V14.00,2013-08-08 00:07:00,
2013-08-07 20:08:00,78.3,71.3,29.74,South,185,0.0,0.0,79,0.00,,---,0.12,VWS V14.00,2013-08-08 00:08:00,
2013-08-07 20:10:00,78.3,71.3,29.74,South,185,0.0,0.0,79,0.00,,---,0.12,VWS V14.00,2013-08-08 00:10:00,
2013-08-07 20:12:00,78.3,71.3,29.74,South,191,0.0,2.0,79,0.00,,---,0.12,VWS V14.00,2013-08-08 00:12:00,
2013-08-07 20:13:00,78.3,71.3,29.74,South,191,0.0,2.0,79,0.00,,---,0.12,VWS V14.00,2013-08-08 00:13:00,
2013-08-07 20:15:00,78.3,71.3,29.74,South,191,0.0,2.0,79,0.00,,---,0.12,VWS V14.00,2013-08-08 00:15:00,
2013-08-07 20:16:00,78.3,71.3,29.74,South,191,0.0,2.0,79,0.00,,---,0.12,VWS V14.00,2013-08-08 00:16:00,
2013-08-07 20:17:00,78.3,70.9,29.74,South,191,0.0,2.0,78,0.00,,---,0.12,VWS V14.00,2013-08-08 00:17:00,
2013-08-07 20:18:00,78.3,71.3,29.74,South,191,0.0,2.0,79,0.00,,---,0.12,VWS V14.00,2013-08-08 00:18:00,
2013-08-07 20:20:00,78.3,71.3,29.74,South,191,0.0,2.0,79,0.00,,---,0.12,VWS V14.00,2013-08-08 00:20:00,
2013-08-07 20:21:00,78.1,71.1,29.74,South,191,0.0,2.0,79,0.00,,---,0.12,VWS V14.00,2013-08-08 00:21:00,
2013-08-07 20:22:00,78.1,71.1,29.74,South,191,0.0,2.0,79,0.00,,---,0.12,VWS V14.00,2013-08-08 00:22:00,
2013-08-07 20:23:00,78.1,71.1,29.74,South,191,0.0,2.0,79,0.00,,---,0.12,VWS V14.00,2013-08-08 00:23:00,
2013-08-07 20:25:00,78.1,71.1,29.74,South,191,0.0,2.0,79,0.00,,---,0.12,VWS V14.00,2013-08-08 00:25:00,
2013-08-07 20:26:00,78.1,71.1,29.74,South,191,0.0,2.0,79,0.00,,---,0.12,VWS V14.00,2013-08-08 00:26:00,
2013-08-07 20:27:00,77.9,70.9,29.74,South,191,0.0,2.0,79,0.00,,---,0.12,VWS V14.00,2013-08-08 00:27:00,
2013-08-07 20:28:00,77.9,70.9,29.74,South,191,0.0,2.0,79,0.00,,---,0.12,VWS V14.00,2013-08-08 00:28:00,
2013-08-07 20:30:00,77.9,71.2,29.74,South,191,0.0,2.0,80,0.00,,---,0.12,VWS V14.00,2013-08-08 00:30:00,
2013-08-07 20:31:00,77.7,70.7,29.74,South,191,0.0,2.0,79,0.00,,---,0.12,VWS V14.00,2013-08-08 00:31:00,
2013-08-07 20:32:00,77.7,71.0,29.74,South,191,0.0,2.0,80,0.00,,---,0.12,VWS V14.00,2013-08-08 00:32:00,
2013-08-07 20:33:00,77.7,71.0,29.74,South,191,0.0,2.0,80,0.00,,---,0.12,VWS V14.00,2013-08-08 00:33:00,
2013-08-07 20:35:00,77.6,70.9,29.74,South,191,0.0,2.0,80,0.00,,---,0.12,VWS V14.00,2013-08-08 00:35:00,
2013-08-07 20:37:00,77.4,70.8,29.74,South,191,0.0,2.0,80,0.00,,---,0.12,VWS V14.00,2013-08-08 00:37:00,
2013-08-07 20:38:00,77.4,70.8,29.74,South,191,0.0,2.0,80,0.00,,---,0.12,VWS V14.00,2013-08-08 00:38:00,
2013-08-07 20:41:00,77.4,71.1,29.74,WNW,302,0.0,2.0,81,0.00,,---,0.12,VWS V14.00,2013-08-08 00:41:00,
2013-08-07 20:42:00,77.4,71.1,29.74,SW,236,0.0,2.0,81,0.00,,---,0.12,VWS V14.00,2013-08-08 00:42:00,
2013-08-07 20:44:00,77.2,70.9,29.74,SW,236,0.0,2.0,81,0.00,,---,0.12,VWS V14.00,2013-08-08 00:44:00,
2013-08-07 20:46:00,77.2,70.9,29.74,SW,236,0.0,2.0,81,0.00,,---,0.12,VWS V14.00,2013-08-08 00:46:00,
2013-08-07 20:47:00,77.2,70.9,29.74,SW,236,0.0,2.0,81,0.00,,---,0.12,VWS V14.00,2013-08-08 00:47:00,
2013-08-07 20:48:00,77.2,70.9,29.74,SW,236,0.0,2.0,81,0.00,,---,0.12,VWS V14.00,2013-08-08 00:48:00,
2013-08-07 20:49:00,77.0,70.7,29.74,SW,236,0.0,2.0,81,0.00,,---,0.12,VWS V14.00,2013-08-08 00:49:00,
2013-08-07 20:51:00,76.8,70.9,29.74,WSW,243,0.0,2.0,82,0.00,,---,0.12,VWS V14.00,2013-08-08 00:51:00,
2013-08-07 20:52:00,76.8,70.9,29.74,WSW,243,0.0,2.0,82,0.00,,---,0.12,VWS V14.00,2013-08-08 00:52:00,
2013-08-07 20:53:00,76.8,70.9,29.74,WSW,243,0.0,2.0,82,0.00,,---,0.12,VWS V14.00,2013-08-08 00:53:00,
2013-08-07 20:54:00,76.8,70.9,29.74,WSW,243,0.0,2.0,82,0.00,,---,0.12,VWS V14.00,2013-08-08 00:54:00,
2013-08-07 20:56:00,76.7,70.8,29.74,WSW,243,0.0,2.0,82,0.00,,---,0.12,VWS V14.00,2013-08-08 00:56:00,
2013-08-07 20:57:00,76.7,70.8,29.74,WSW,243,0.0,2.0,82,0.00,,---,0.12,VWS V14.00,2013-08-08 00:57:00,
2013-08-07 20:58:00,76.5,70.6,29.74,WSW,243,0.0,2.0,82,0.00,,---,0.12,VWS V14.00,2013-08-08 00:58:00,
2013-08-07 20:59:00,76.5,70.6,29.74,WSW,243,0.0,2.0,82,0.00,,---,0.12,VWS V14.00,2013-08-08 00:59:00,
2013-08-07 21:01:00,76.3,70.8,29.75,WSW,243,0.0,0.0,83,0.00,,---,0.12,VWS V14.00,2013-08-08 01:01:00,
2013-08-07 21:02:00,76.3,70.8,29.75,WSW,243,0.0,0.0,83,0.00,,---,0.12,VWS V14.00,2013-08-08 01:02:00,
2013-08-07 21:03:00,76.3,70.8,29.75,WSW,243,0.0,0.0,83,0.00,,---,0.12,VWS V14.00,2013-08-08 01:03:00,
2013-08-07 21:04:00,76.3,70.8,29.75,WSW,243,0.0,0.0,83,0.00,,---,0.12,VWS V14.00,2013-08-08 01:04:00,
2013-08-07 21:05:00,76.1,70.6,29.75,WSW,243,0.0,0.0,83,0.00,,---,0.12,VWS V14.00,2013-08-08 01:05:00,
2013-08-07 21:06:00,76.0,70.5,29.75,WSW,243,0.0,0.0,83,0.00,,---,0.12,VWS V14.00,2013-08-08 01:06:00,
2013-08-07 21:08:00,75.8,70.6,29.75,WSW,243,0.0,0.0,84,0.00,,---,0.12,VWS V14.00,2013-08-08 01:08:00,
2013-08-07 21:09:00,75.8,70.6,29.75,WSW,243,0.0,0.0,84,0.00,,---,0.12,VWS V14.00,2013-08-08 01:09:00,
2013-08-07 21:10:00,75.8,70.6,29.75,WSW,243,0.0,0.0,84,0.00,,---,0.12,VWS V14.00,2013-08-08 01:10:00,
2013-08-07 21:11:00,75.8,70.6,29.75,WSW,243,0.0,0.0,84,0.00,,---,0.12,VWS V14.00,2013-08-08 01:11:00,
2013-08-07 21:13:00,75.6,70.4,29.75,WSW,243,0.0,0.0,84,0.00,,---,0.12,VWS V14.00,2013-08-08 01:13:00,
2013-08-07 21:14:00,75.6,70.4,29.75,WSW,243,0.0,0.0,84,0.00,,---,0.12,VWS V14.00,2013-08-08 01:14:00,
2013-08-07 21:15:00,75.6,70.4,29.75,WSW,243,0.0,0.0,84,0.00,,---,0.12,VWS V14.00,2013-08-08 01:15:00,
2013-08-07 21:16:00,75.4,70.6,29.75,WSW,243,0.0,0.0,85,0.00,,---,0.12,VWS V14.00,2013-08-08 01:16:00,
2013-08-07 21:18:00,75.3,70.5,29.75,WSW,243,0.0,0.0,85,0.00,,---,0.12,VWS V14.00,2013-08-08 01:18:00,
2013-08-07 21:19:00,75.3,70.5,29.75,WSW,243,0.0,0.0,85,0.00,,---,0.12,VWS V14.00,2013-08-08 01:19:00,
2013-08-07 21:20:00,75.1,70.3,29.75,WSW,243,0.0,0.0,85,0.00,,---,0.12,VWS V14.00,2013-08-08 01:20:00,
2013-08-07 21:22:00,74.7,69.9,29.75,WSW,243,0.0,0.0,85,0.00,,---,0.12,VWS V14.00,2013-08-08 01:22:00,
2013-08-07 21:24:00,74.6,70.1,29.75,WSW,243,0.0,0.0,86,0.00,,---,0.12,VWS V14.00,2013-08-08 01:24:00,
2013-08-07 21:25:00,74.6,70.1,29.75,WSW,243,0.0,0.0,86,0.00,,---,0.12,VWS V14.00,2013-08-08 01:25:00,
2013-08-07 21:27:00,74.7,70.6,29.75,WSW,243,0.0,0.0,87,0.00,,---,0.12,VWS V14.00,2013-08-08 01:27:00,
2013-08-07 21:29:00,74.6,70.5,29.75,WSW,240,0.0,0.0,87,0.00,,---,0.12,VWS V14.00,2013-08-08 01:29:00,
2013-08-07 21:30:00,74.4,69.9,29.75,WSW,240,0.0,0.0,86,0.00,,---,0.12,VWS V14.00,2013-08-08 01:30:00,
2013-08-07 21:32:00,74.0,69.6,29.75,WSW,240,0.0,0.0,86,0.00,,---,0.12,VWS V14.00,2013-08-08 01:32:00,
2013-08-07 21:34:00,74.0,69.9,29.75,WSW,240,0.0,0.0,87,0.00,,---,0.12,VWS V14.00,2013-08-08 01:34:00,
2013-08-07 21:35:00,74.0,70.2,29.75,WSW,240,0.0,0.0,88,0.00,,---,0.12,VWS V14.00,2013-08-08 01:35:00,
2013-08-07 21:37:00,74.0,70.2,29.75,WSW,240,0.0,0.0,88,0.00,,---,0.12,VWS V14.00,2013-08-08 01:37:00,
2013-08-07 21:39:00,74.0,70.2,29.75,WSW,240,0.0,0.0,88,0.00,,---,0.12,VWS V14.00,2013-08-08 01:39:00,
2013-08-07 21:40:00,74.0,70.2,29.75,WSW,240,0.0,0.0,88,0.00,,---,0.12,VWS V14.00,2013-08-08 01:40:00,
2013-08-07 21:41:00,74.0,70.2,29.75,WSW,240,0.0,0.0,88,0.00,,---,0.12,VWS V14.00,2013-08-08 01:41:00,
2013-08-07 21:42:00,74.2,70.4,29.75,WSW,240,0.0,0.0,88,0.00,,---,0.12,VWS V14.00,2013-08-08 01:42:00,
2013-08-07 21:44:00,74.2,70.4,29.75,WSW,240,0.0,0.0,88,0.00,,---,0.12,VWS V14.00,2013-08-08 01:44:00,
2013-08-07 21:45:00,74.2,70.4,29.75,WSW,240,0.0,0.0,88,0.00,,---,0.12,VWS V14.00,2013-08-08 01:45:00,
2013-08-07 21:46:00,74.0,69.9,29.76,WSW,240,0.0,0.0,87,0.00,,---,0.12,VWS V14.00,2013-08-08 01:46:00,
2013-08-07 21:47:00,74.2,70.4,29.76,WSW,240,0.0,0.0,88,0.00,,---,0.12,VWS V14.00,2013-08-08 01:47:00,
2013-08-07 21:49:00,74.2,70.4,29.76,WSW,240,0.0,0.0,88,0.00,,---,0.12,VWS V14.00,2013-08-08 01:49:00,
2013-08-07 21:50:00,74.2,70.4,29.76,WSW,240,0.0,0.0,88,0.00,,---,0.12,VWS V14.00,2013-08-08 01:50:00,
2013-08-07 21:51:00,74.2,70.4,29.76,WSW,240,0.0,0.0,88,0.00,,---,0.12,VWS V14.00,2013-08-08 01:51:00,
2013-08-07 21:52:00,74.0,69.9,29.76,WSW,240,0.0,0.0,87,0.00,,---,0.12,VWS V14.00,2013-08-08 01:52:00,
2013-08-07 21:54:00,73.9,70.1,29.76,WSW,240,0.0,0.0,88,0.00,,---,0.12,VWS V14.00,2013-08-08 01:54:00,
2013-08-07 21:55:00,73.9,70.1,29.76,WSW,240,0.0,0.0,88,0.00,,---,0.12,VWS V14.00,2013-08-08 01:55:00,
2013-08-07 21:56:00,74.0,70.2,29.76,WSW,240,0.0,0.0,88,0.00,,---,0.12,VWS V14.00,2013-08-08 01:56:00,
2013-08-07 21:57:00,73.9,70.1,29.76,WSW,240,0.0,0.0,88,0.00,,---,0.12,VWS V14.00,2013-08-08 01:57:00,
2013-08-07 21:59:00,73.5,69.7,29.76,WSW,240,0.0,0.0,88,0.00,,---,0.12,VWS V14.00,2013-08-08 01:59:00,
2013-08-07 22:01:00,73.5,69.7,29.76,WSW,240,0.0,0.0,88,0.00,,---,0.12,VWS V14.00,2013-08-08 02:01:00,
2013-08-07 22:02:00,73.5,70.1,29.76,WSW,240,0.0,0.0,89,0.00,,---,0.12,VWS V14.00,2013-08-08 02:02:00,
2013-08-07 22:04:00,73.2,69.4,29.76,WSW,240,0.0,0.0,88,0.00,,---,0.12,VWS V14.00,2013-08-08 02:04:00,
2013-08-07 22:06:00,73.0,69.2,29.76,WSW,240,0.0,0.0,88,0.00,,---,0.12,VWS V14.00,2013-08-08 02:06:00,
2013-08-07 22:08:00,73.0,69.6,29.76,WSW,240,0.0,0.0,89,0.00,,---,0.12,VWS V14.00,2013-08-08 02:08:00,
2013-08-07 22:09:00,73.0,69.6,29.76,WSW,240,0.0,0.0,89,0.00,,---,0.12,VWS V14.00,2013-08-08 02:09:00,
2013-08-07 22:11:00,73.0,69.9,29.76,WSW,240,0.0,0.0,90,0.00,,---,0.12,VWS V14.00,2013-08-08 02:11:00,
2013-08-07 22:12:00,72.8,69.7,29.76,WSW,240,0.0,0.0,90,0.00,,---,0.12,VWS V14.00,2013-08-08 02:12:00,
2013-08-07 22:13:00,72.7,69.6,29.76,WSW,240,0.0,0.0,90,0.00,,---,0.12,VWS V14.00,2013-08-08 02:13:00,
2013-08-07 22:15:00,72.5,69.4,29.76,WSW,240,0.0,0.0,90,0.00,,---,0.12,VWS V14.00,2013-08-08 02:15:00,
2013-08-07 22:16:00,72.5,69.4,29.78,WSW,240,0.0,0.0,90,0.00,,---,0.12,VWS V14.00,2013-08-08 02:16:00,
2013-08-07 22:17:00,72.3,69.2,29.78,WSW,240,0.0,0.0,90,0.00,,---,0.12,VWS V14.00,2013-08-08 02:17:00,
2013-08-07 22:18:00,72.3,69.5,29.78,WSW,240,0.0,0.0,91,0.00,,---,0.12,VWS V14.00,2013-08-08 02:18:00,
2013-08-07 22:20:00,72.3,69.5,29.78,WSW,240,0.0,0.0,91,0.00,,---,0.12,VWS V14.00,2013-08-08 02:20:00,
2013-08-07 22:21:00,72.1,69.3,29.78,WSW,240,0.0,0.0,91,0.00,,---,0.12,VWS V14.00,2013-08-08 02:21:00,
2013-08-07 22:22:00,72.1,69.3,29.78,WSW,240,0.0,0.0,91,0.00,,---,0.12,VWS V14.00,2013-08-08 02:22:00,
2013-08-07 22:23:00,72.1,69.3,29.78,WSW,240,0.0,0.0,91,0.00,,---,0.12,VWS V14.00,2013-08-08 02:23:00,
2013-08-07 22:25:00,72.1,69.7,29.78,WSW,240,0.0,0.0,92,0.00,,---,0.12,VWS V14.00,2013-08-08 02:25:00,
2013-08-07 22:26:00,72.0,69.6,29.78,WSW,240,0.0,0.0,92,0.00,,---,0.12,VWS V14.00,2013-08-08 02:26:00,
2013-08-07 22:27:00,71.8,69.3,29.78,WSW,240,0.0,0.0,92,0.00,,---,0.12,VWS V14.00,2013-08-08 02:27:00,
2013-08-07 22:28:00,71.8,69.3,29.78,WSW,240,0.0,0.0,92,0.00,,---,0.12,VWS V14.00,2013-08-08 02:28:00,
2013-08-07 22:29:00,71.8,69.3,29.78,WSW,240,0.0,0.0,92,0.00,,---,0.12,VWS V14.00,2013-08-08 02:29:00,
2013-08-07 22:30:00,71.6,69.2,29.78,WSW,240,0.0,0.0,92,0.00,,---,0.12,VWS V14.00,2013-08-08 02:30:00,
2013-08-07 22:31:00,71.8,69.3,29.78,WSW,240,0.0,0.0,92,0.00,,---,0.12,VWS V14.00,2013-08-08 02:31:00,
2013-08-07 22:33:00,71.8,69.7,29.78,WSW,240,0.0,0.0,93,0.00,,---,0.12,VWS V14.00,2013-08-08 02:33:00,
2013-08-07 22:34:00,71.8,69.7,29.78,WSW,240,0.0,0.0,93,0.00,,---,0.12,VWS V14.00,2013-08-08 02:34:00,
2013-08-07 22:35:00,72.0,69.9,29.78,WSW,240,0.0,0.0,93,0.00,,---,0.12,VWS V14.00,2013-08-08 02:35:00,
2013-08-07 22:36:00,72.0,69.9,29.78,WSW,240,0.0,0.0,93,0.00,,---,0.12,VWS V14.00,2013-08-08 02:36:00,
2013-08-07 22:38:00,72.0,69.9,29.78,WSW,240,0.0,0.0,93,0.00,,---,0.12,VWS V14.00,2013-08-08 02:38:00,
2013-08-07 22:39:00,72.0,69.9,29.78,WSW,240,0.0,0.0,93,0.00,,---,0.12,VWS V14.00,2013-08-08 02:39:00,
2013-08-07 22:40:00,72.1,70.0,29.78,WSW,240,0.0,0.0,93,0.00,,---,0.12,VWS V14.00,2013-08-08 02:40:00,
2013-08-07 22:42:00,72.0,69.9,29.78,WSW,240,0.0,0.0,93,0.00,,---,0.12,VWS V14.00,2013-08-08 02:42:00,
2013-08-07 22:43:00,72.0,69.9,29.78,WSW,240,0.0,0.0,93,0.00,,---,0.12,VWS V14.00,2013-08-08 02:43:00,
2013-08-07 22:44:00,72.0,69.9,29.78,WSW,240,0.0,0.0,93,0.00,,---,0.12,VWS V14.00,2013-08-08 02:44:00,
2013-08-07 22:45:00,71.8,69.7,29.78,WSW,240,0.0,0.0,93,0.00,,---,0.12,VWS V14.00,2013-08-08 02:45:00,
2013-08-07 22:47:00,71.8,69.7,29.78,WSW,240,0.0,0.0,93,0.00,,---,0.12,VWS V14.00,2013-08-08 02:47:00,
2013-08-07 22:48:00,71.8,69.7,29.78,WSW,240,0.0,0.0,93,0.00,,---,0.12,VWS V14.00,2013-08-08 02:48:00,
2013-08-07 22:49:00,71.6,69.5,29.78,WSW,240,0.0,0.0,93,0.00,,---,0.12,VWS V14.00,2013-08-08 02:49:00,
2013-08-07 22:51:00,71.5,69.4,29.78,WSW,240,0.0,0.0,93,0.00,,---,0.12,VWS V14.00,2013-08-08 02:51:00,
2013-08-07 22:52:00,71.3,69.2,29.78,WSW,240,0.0,0.0,93,0.00,,---,0.12,VWS V14.00,2013-08-08 02:52:00,
2013-08-07 22:53:00,71.3,69.2,29.78,WSW,240,0.0,0.0,93,0.00,,---,0.12,VWS V14.00,2013-08-08 02:53:00,
2013-08-07 22:54:00,70.9,68.8,29.78,WSW,240,0.0,0.0,93,0.00,,---,0.12,VWS V14.00,2013-08-08 02:54:00,
2013-08-07 22:56:00,70.8,68.7,29.78,WSW,240,0.0,0.0,93,0.00,,---,0.12,VWS V14.00,2013-08-08 02:56:00,
2013-08-07 22:57:00,70.8,68.7,29.78,WSW,240,0.0,0.0,93,0.00,,---,0.12,VWS V14.00,2013-08-08 02:57:00,
2013-08-07 22:58:00,70.8,68.7,29.78,WSW,240,0.0,0.0,93,0.00,,---,0.12,VWS V14.00,2013-08-08 02:58:00,
2013-08-07 22:59:00,70.8,68.7,29.78,WSW,240,0.0,0.0,93,0.00,,---,0.12,VWS V14.00,2013-08-08 02:59:00,
2013-08-07 23:01:00,70.8,69.0,29.79,WSW,240,0.0,0.0,94,0.00,,---,0.12,VWS V14.00,2013-08-08 03:01:00,
2013-08-07 23:02:00,70.9,69.1,29.79,WSW,240,0.0,0.0,94,0.00,,---,0.12,VWS V14.00,2013-08-08 03:02:00,
2013-08-07 23:03:00,70.9,69.1,29.79,WSW,240,0.0,0.0,94,0.00,,---,0.12,VWS V14.00,2013-08-08 03:03:00,
2013-08-07 23:04:00,70.8,69.0,29.79,WSW,240,0.0,0.0,94,0.00,,---,0.12,VWS V14.00,2013-08-08 03:04:00,
2013-08-07 23:05:00,70.6,68.8,29.79,WSW,240,0.0,0.0,94,0.00,,---,0.12,VWS V14.00,2013-08-08 03:05:00,
2013-08-07 23:07:00,70.6,68.8,29.79,WSW,240,0.0,0.0,94,0.00,,---,0.12,VWS V14.00,2013-08-08 03:07:00,
2013-08-07 23:09:00,70.8,69.0,29.79,WSW,240,0.0,0.0,94,0.00,,---,0.12,VWS V14.00,2013-08-08 03:09:00,
2013-08-07 23:10:00,70.9,69.1,29.79,WSW,240,0.0,0.0,94,0.00,,---,0.12,VWS V14.00,2013-08-08 03:10:00,
2013-08-07 23:12:00,71.1,69.6,29.79,WSW,240,0.0,0.0,95,0.00,,---,0.12,VWS V14.00,2013-08-08 03:12:00,
2013-08-07 23:14:00,71.1,69.6,29.79,WSW,240,0.0,0.0,95,0.00,,---,0.12,VWS V14.00,2013-08-08 03:14:00,
2013-08-07 23:15:00,71.1,69.3,29.79,WSW,240,0.0,0.0,94,0.00,,---,0.12,VWS V14.00,2013-08-08 03:15:00,
2013-08-07 23:17:00,70.8,69.0,29.79,WSW,240,0.0,0.0,94,0.00,,---,0.12,VWS V14.00,2013-08-08 03:17:00,
2013-08-07 23:19:00,70.4,68.6,29.79,WSW,240,0.0,0.0,94,0.00,,---,0.12,VWS V14.00,2013-08-08 03:19:00,
2013-08-07 23:20:00,70.4,68.6,29.79,NW,305,0.0,1.0,94,0.00,,---,0.12,VWS V14.00,2013-08-08 03:20:00,
2013-08-07 23:22:00,70.8,69.3,29.79,NW,308,0.0,1.0,95,0.00,,---,0.12,VWS V14.00,2013-08-08 03:22:00,
2013-08-07 23:24:00,71.1,69.6,29.79,NW,315,0.0,1.0,95,0.00,,---,0.12,VWS V14.00,2013-08-08 03:24:00,
2013-08-07 23:25:00,71.1,69.6,29.79,NW,315,0.0,1.0,95,0.00,,---,0.12,VWS V14.00,2013-08-08 03:25:00,
2013-08-07 23:27:00,71.5,70.3,29.79,NW,316,0.0,1.0,96,0.00,,---,0.12,VWS V14.00,2013-08-08 03:27:00,
2013-08-07 23:28:00,71.5,70.3,29.79,NW,316,0.0,1.0,96,0.00,,---,0.12,VWS V14.00,2013-08-08 03:28:00,
2013-08-07 23:30:00,71.6,70.4,29.79,NW,316,0.0,1.0,96,0.00,,---,0.12,VWS V14.00,2013-08-08 03:30:00,
2013-08-07 23:32:00,71.6,70.4,29.79,NW,316,0.0,1.0,96,0.00,,---,0.12,VWS V14.00,2013-08-08 03:32:00,
2013-08-07 23:33:00,71.6,70.1,29.79,NW,316,0.0,1.0,95,0.00,,---,0.12,VWS V14.00,2013-08-08 03:33:00,
2013-08-07 23:35:00,71.6,70.1,29.79,NW,316,0.0,1.0,95,0.00,,---,0.12,VWS V14.00,2013-08-08 03:35:00,
2013-08-07 23:37:00,71.6,70.1,29.79,NW,316,0.0,1.0,95,0.00,,---,0.12,VWS V14.00,2013-08-08 03:37:00,
2013-08-07 23:39:00,71.6,70.1,29.79,NW,316,0.0,1.0,95,0.00,,---,0.12,VWS V14.00,2013-08-08 03:39:00,
2013-08-07 23:40:00,71.6,70.1,29.79,NW,316,0.0,1.0,95,0.00,,---,0.12,VWS V14.00,2013-08-08 03:40:00,
2013-08-07 23:43:00,71.8,70.3,29.79,NW,316,0.0,1.0,95,0.00,,---,0.12,VWS V14.00,2013-08-08 03:43:00,
2013-08-07 23:44:00,71.8,70.3,29.79,NW,316,0.0,1.0,95,0.00,,---,0.12,VWS V14.00,2013-08-08 03:44:00,
2013-08-07 23:45:00,71.5,70.0,29.79,NW,316,0.0,1.0,95,0.00,,---,0.12,VWS V14.00,2013-08-08 03:45:00,
2013-08-07 23:46:00,71.5,70.0,29.79,NW,316,0.0,1.0,95,0.00,,---,0.12,VWS V14.00,2013-08-08 03:46:00,
2013-08-07 23:48:00,71.1,69.3,29.79,NW,316,0.0,1.0,94,0.00,,---,0.12,VWS V14.00,2013-08-08 03:48:00,
2013-08-07 23:49:00,71.1,69.6,29.79,NW,316,0.0,1.0,95,0.00,,---,0.12,VWS V14.00,2013-08-08 03:49:00,
2013-08-07 23:50:00,71.1,69.6,29.79,NW,316,0.0,1.0,95,0.00,,---,0.12,VWS V14.00,2013-08-08 03:50:00,
2013-08-07 23:51:00,71.1,69.6,29.79,NW,316,0.0,1.0,95,0.00,,---,0.12,VWS V14.00,2013-08-08 03:51:00,
2013-08-07 23:53:00,71.1,69.6,29.79,NW,316,0.0,1.0,95,0.00,,---,0.12,VWS V14.00,2013-08-08 03:53:00,
2013-08-07 23:54:00,71.3,69.8,29.79,NW,316,0.0,1.0,95,0.00,,---,0.12,VWS V14.00,2013-08-08 03:54:00,
2013-08-07 23:56:00,71.3,69.8,29.79,NW,316,0.0,1.0,95,0.00,,---,0.12,VWS V14.00,2013-08-08 03:56:00,
2013-08-07 23:58:00,71.3,69.8,29.79,NW,316,0.0,1.0,95,0.00,,---,0.12,VWS V14.00,2013-08-08 03:58:00,
2013-08-07 23:59:00,71.3,69.8,29.79,NW,316,0.0,1.0,95,0.00,,---,0.12,VWS V14.00,2013-08-08 03:59:00,